Flight Track Log - Related Links

Times and Time Zones

All times are in EDT time to prevent confusion due to time zone crossing. See the UAL91 flight status page for this flight to view local times or setup timezone preferences in your user account.

Time Position Orientation Groundspeed Altitude Reporting Facility
EDT Latitude Longitude Course Direction KTS MPH feet Rate Location/Type
Sat 04:23:57 PM 32.0975 35.1347 360° North 6,100  Level FlightAware ADS-B (LLJR / JRS)
Sat 04:24:10 PM 32.1147 35.1378 North 298 343 6,600 2,526 Climbing FlightAware ADS-B (LLJR / JRS)
Sat 04:24:16 PM 32.1231 35.1371 352° North 295 339 6,900 3,000 Climbing FlightAware ADS-B (LLJR / JRS)
Sat 04:24:22 PM 32.1307 35.1353 347° North 293 337 7,200 2,182 Climbing FlightAware ADS-B (LLJR / JRS)
Sat 04:24:27 PM 32.1370 35.1327 339° North 291 335 7,300 1,800 Climbing FlightAware ADS-B (LLJR / JRS)
Sat 04:24:32 PM 32.1428 35.1294 332° Northwest 289 333 7,500 3,000 Climbing FlightAware ADS-B (LLJR / JRS)
Sat 04:24:39 PM 32.1521 35.1221 323° Northwest 286 329 7,900 2,500 Climbing FlightAware ADS-B (LLHA / HFA)
Sat 04:24:44 PM 32.1567 35.1172 316° Northwest 285 328 8,000 1,800 Climbing FlightAware ADS-B (LLHA / HFA)
Sat 04:24:49 PM 32.1615 35.1109 310° West 285 328 8,200 2,182 Climbing FlightAware ADS-B (LLHA / HFA)
Sat 04:24:55 PM 32.1653 35.1046 303° West 283 326 8,400 1,800 Climbing FlightAware ADS-B (LLHA / HFA)
Sat 04:24:59 PM 32.1677 35.0993 296° West 281 323 8,500 1,500 Climbing FlightAware ADS-B (LLHA / HFA)
Sat 04:25:15 PM 32.1754 35.0769 292° West 278 320 8,900 1,029 Climbing FlightAware ADS-B (LLHA / HFA)
Sat 04:25:34 PM 32.1849 35.0493 292° West 282 325 9,100 308 Climbing FlightAware ADS-B (LLHA / HFA)
Sat 04:25:54 PM 32.1915 35.0296 292° West 282 325 9,100 324 Level FlightAware ADS-B (LLHA / HFA)
Sat 04:26:11 PM 32.2023 34.9966 290° West 284 327 9,300 1,091 Climbing FlightAware ADS-B (LLJR / JRS)
Sat 04:26:16 PM 32.2049 34.9875 289° West 283 326 9,500 1,846 Climbing FlightAware ADS-B (LLJR / JRS)
Sat 04:26:50 PM 32.2181 34.9381 288° West 289 333 10,500 1,300 Climbing FlightAware ADS-B (LLHA / HFA)
Sat 04:27:16 PM 32.2261 34.9077 288° West 289 333 10,800 787 Climbing FlightAware ADS-B (LLHA / HFA)
Sat 04:27:51 PM 32.2444 34.8377 289° West 343 395 11,300 800 Climbing FlightAware ADS-B (LLJR / JRS)
Sat 04:28:01 PM 32.2518 34.8192 302° West 356 410 11,400 900 Climbing FlightAware ADS-B (LLJR / JRS)
Sat 04:28:11 PM 32.2622 34.8039 312° West 363 418 11,600 1,200 Climbing FlightAware ADS-B (LLJR / JRS)
Sat 04:28:21 PM 32.2712 34.7947 328° Northwest 371 427 11,800 1,440 Climbing FlightAware ADS-B (LLJR / JRS)
Sat 04:28:36 PM 32.2986 34.7777 288° West 341 392 12,200 1,750 Climbing FlightAware ADS-B (LLHA / HFA)
Sat 04:28:45 PM 32.3132 34.7704 338° Northwest 379 436 12,500 1,395 Climbing FlightAware ADS-B (LLHA / HFA)
Sat 04:29:19 PM 32.3698 34.7438 339° North 385 443 13,200 1,385 Climbing FlightAware ADS-B (LLJR / JRS)
Sat 04:29:50 PM 32.3936 34.7327 339° North 392 451 14,000 1,477 Climbing FlightAware ADS-B (LLJR / JRS)
Sat 04:30:24 PM 32.4798 34.6914 338° Northwest 397 457 14,800 1,385 Climbing FlightAware ADS-B (LLHA / HFA)
Sat 04:30:55 PM 32.5315 34.6660 338° Northwest 400 460 15,500 1,500 Climbing FlightAware ADS-B (LLHA / HFA)
Sat 04:31:24 PM 32.5832 34.6409 338° Northwest 402 463 16,300 1,500 Climbing FlightAware ADS-B (LLHA / HFA)
Sat 04:31:55 PM 32.6348 34.6157 338° Northwest 406 467 17,000 1,279 Climbing FlightAware ADS-B (LLHA / HFA)
Sat 04:32:25 PM 32.6874 34.5899 338° Northwest 410 472 17,600 1,220 Climbing FlightAware ADS-B (LLHA / HFA)
Sat 04:32:54 PM 32.7392 34.5644 337° Northwest 414 476 18,200 1,333 Climbing FlightAware ADS-B (LLHA / HFA)
Sat 04:33:01 PM 32.7511 34.5576 335° Northwest 412 474 18,400 1,143 Climbing FlightAware ADS-B (LLJR / JRS)
Sat 04:33:15 PM 32.7723 34.5404 321° Northwest 409 471 18,600 1,059 Climbing FlightAware ADS-B (LLHA / HFA)
Sat 04:33:35 PM 32.7977 34.5068 305° West 403 464 19,000 1,227 Climbing FlightAware ADS-B (LLHA / HFA)
Sat 04:33:59 PM 32.8192 34.4614 335° Northwest 412 474 19,500 1,200 Climbing FlightAware ADS-B (LLJR / JRS)
Sat 04:34:05 PM 32.8247 34.4494 299° West 404 465 19,600 1,440 Climbing FlightAware ADS-B (LLHA / HFA)
Sat 04:34:24 PM 32.8431 34.4113 304° West 404 465 20,100 1,231 Climbing FlightAware ADS-B (LLHA / HFA)
Sat 04:34:44 PM 32.8677 34.3769 317° Northwest 414 476 20,400 900 Climbing FlightAware ADS-B (LLHA / HFA)
Sat 04:35:04 PM 32.8993 34.3489 328° Northwest 423 487 20,700 840 Climbing FlightAware ADS-B (LLHA / HFA)
Sat 04:35:34 PM 32.9495 34.3113 328° Northwest 429 494 21,100 706 Climbing FlightAware ADS-B (LLHA / HFA)
Sat 04:35:55 PM 32.9811 34.2825 317° Northwest 430 495 21,300 732 Climbing FlightAware ADS-B (LLHA / HFA)
Sat 04:36:15 PM 33.0067 34.2468 306° West 427 491 21,600 840 Climbing FlightAware ADS-B (LLHA / HFA)
Sat 04:36:45 PM 33.0346 34.1848 297° West 427 491 22,000 1,017 Climbing FlightAware ADS-B (LLHA / HFA)
Sat 04:37:14 PM 33.0606 34.1214 296° West 427 491 22,600 1,220 Climbing FlightAware ADS-B (LLHA / HFA)
Sat 04:37:44 PM 33.0858 34.0585 296° West 425 489 23,200 984 Climbing FlightAware ADS-B (LLHA / HFA)
Sat 04:38:15 PM 33.1113 33.9949 296° West 428 493 23,600 787 Climbing FlightAware ADS-B (LLHA / HFA)
Sat 04:38:45 PM 33.1374 33.9299 296° West 431 496 24,000 814 Climbing FlightAware ADS-B (LLHA / HFA)
Sat 04:39:14 PM 33.1630 33.8660 296° West 433 498 24,400 800 Climbing FlightAware ADS-B (LLHA / HFA)
Sat 04:39:45 PM 33.1893 33.8007 296° West 437 503 24,800 787 Climbing FlightAware ADS-B (LLHA / HFA)
Sat 04:40:15 PM 33.2154 33.7358 296° West 438 504 25,200 915 Climbing FlightAware ADS-B (LLHA / HFA)
Sat 04:40:44 PM 33.2430 33.6708 298° West 440 506 25,700 915 Climbing FlightAware ADS-B (LLHA / HFA)
Sat 04:41:14 PM 33.2719 33.6067 298° West 440 506 26,100 689 Climbing FlightAware ADS-B (LLHA / HFA)
Sat 04:41:45 PM 33.3021 33.5415 300° West 446 513 26,400 600 Climbing FlightAware ADS-B (LLHA / HFA)
Sat 04:42:14 PM 33.3322 33.4770 300° West 449 517 26,700 610 Climbing FlightAware ADS-B (LLHA / HFA)
Sat 04:42:44 PM 33.3628 33.4117 300° West 453 521 27,000 800 Climbing FlightAware ADS-B (LLHA / HFA)
Sat 04:43:14 PM 33.3930 33.3468 300° West 451 519 27,500 800 Climbing FlightAware ADS-B (LLHA / HFA)
Sat 04:43:44 PM 33.4236 33.2809 299° West 453 521 27,800 700 Climbing FlightAware ADS-B (LLHA / HFA)
Sat 04:44:14 PM 33.4543 33.2145 299° West 455 524 28,200 700 Climbing FlightAware ADS-B (LLHA / HFA)
Sat 04:44:44 PM 33.4849 33.1480 299° West 457 526 28,500 700 Climbing FlightAware ADS-B (LLHA / HFA)
Sat 04:45:14 PM 33.5149 33.0827 299° West 460 529 28,900 700 Climbing FlightAware ADS-B (LLHA / HFA)
Sat 04:45:44 PM 33.5459 33.0152 299° West 460 529 29,200 590 Climbing FlightAware ADS-B (LLHA / HFA)
Sat 04:46:15 PM 33.5771 32.9471 299° West 462 532 29,500 462 Climbing FlightAware ADS-B (LLHA / HFA)
Sat 04:46:49 PM 33.6133 32.8678 299° West 468 539 29,700 281 Climbing FlightAware ADS-B (LLHA / HFA)
Sat 04:47:19 PM 33.6442 32.7999 299° West 473 544 29,800 393 Climbing FlightAware ADS-B (LLHA / HFA)
Sat 04:47:50 PM 33.6762 32.7295 299° West 474 545 30,100 600 Climbing FlightAware ADS-B (LLHA / HFA)
Sat 04:48:19 PM 33.7064 32.6632 299° West 475 547 30,400 610 Climbing FlightAware ADS-B (LLHA / HFA)
Sat 04:48:49 PM 33.7389 32.5915 299° West 477 549 30,700 600 Climbing FlightAware ADS-B (LLHA / HFA)
Sat 04:49:19 PM 33.7695 32.5237 299° West 481 554 31,000 500 Climbing FlightAware ADS-B (LLHA / HFA)
Sat 04:49:49 PM 33.8022 32.4514 299° West 482 555 31,200 500 Climbing FlightAware ADS-B (LLHA / HFA)
Sat 04:50:19 PM 33.8338 32.3812 299° West 483 556 31,500 429 Climbing FlightAware ADS-B (LLHA / HFA)
Sat 04:50:59 PM 33.8766 32.2860 299° West 489 563 31,700 343 Climbing FlightAware ADS-B (LLHA / HFA)
Sat 04:51:29 PM 33.9086 32.2146 299° West 490 564 31,900 250 Climbing FlightAware ADS-B (LLHA / HFA)
Sat 04:52:11 PM 33.9538 32.1137 299° West 493 567 32,000 74 Climbing FlightAware ADS-B (LLHA / HFA)
Sat 04:52:50 PM 33.9936 32.0245 299° West 491 565 32,000  Level FlightAware ADS-B (LLHA / HFA)
Sat 04:53:14 PM 34.0157 31.9748 299° West 490 564 32,000  Level FlightAware ADS-B (LLHA / HFA)
Sat 04:54:19 PM 34.0911 31.8049 299° West 489 563 32,000  Level FlightAware ADS-B (LLHA / HFA)
Sat 04:54:46 PM 34.1074 31.7679 299° West 487 560 32,000  Level FlightAware ADS-B (LLHA / HFA)
Sat 04:56:14 PM 34.2090 31.5377 298° West 484 557 32,000  Level FlightAware ADS-B (LLHA / HFA)
Sat 04:56:43 PM 34.2412 31.4643 298° West 485 558 32,000  Level FlightAware ADS-B (LLHA / HFA)
Sat 04:58:14 PM 34.3379 31.2428 298° West 486 559 32,000  Level FlightAware ADS-B (LLHA / HFA)
Sat 04:58:39 PM 34.3629 31.1853 298° West 485 558 32,000  Level FlightAware ADS-B (LLHA / HFA)
Sat 04:59:54 PM 34.4391 31.0096 298° West 483 556 32,000  Level FlightAware ADS-B (LLHA / HFA)
Sat 05:00:13 PM 34.4597 30.9619 298° West 483 556 32,000  Level FlightAware ADS-B (LLHA / HFA)
Sat 05:01:14 PM 34.5228 30.8157 298° West 482 555 32,000  Level FlightAware ADS-B (LLHA / HFA)
Sat 05:01:27 PM 34.5330 30.7918 298° West 481 554 32,000  Level FlightAware ADS-B (LLHA / HFA)
Sat 05:02:14 PM 34.5850 30.6707 298° West 480 552 32,000  Level FlightAware ADS-B (LLHA / HFA)
Sat 05:04:00 PM 34.7282 30.4731 311° West  Level Estimated
Sat 05:05:00 PM 35.4551 30.7365 314° West  Level Estimated
Sat 05:06:00 PM 35.5349 30.6250 311° West  Level Estimated
Sat 05:07:00 PM 35.6146 30.5132 311° West  Level Estimated
Sat 05:08:00 PM 35.6941 30.4012 311° West  Level Estimated
Sat 05:09:00 PM 35.7736 30.2889 311° West  Level Estimated
Sat 05:10:00 PM 35.8540 30.1750 311° West  Level Estimated
Sat 05:11:00 PM 35.9343 30.0608 311° West  Level Estimated
Sat 05:12:00 PM 36.0144 29.9466 311° West  Level Estimated
Sat 05:13:00 PM 36.0943 29.8321 311° West  Level Estimated
Sat 05:14:00 PM 36.1742 29.7174 311° West  Level Estimated
Sat 05:15:00 PM 36.2539 29.6024 311° West  Level Estimated
Sat 05:16:00 PM 36.3336 29.4873 311° West  Level Estimated
Sat 05:17:00 PM 36.4131 29.3718 311° West  Level Estimated
Sat 05:18:00 PM 36.4925 29.2562 311° West  Level Estimated
Sat 05:19:00 PM 36.5718 29.1403 310° West  Level Estimated
Sat 05:20:00 PM 36.6510 29.0242 310° West  Level Estimated
Sat 05:21:00 PM 36.7302 28.9077 310° West  Level Estimated
Sat 05:22:00 PM 36.8093 28.7909 310° West  Level Estimated
Sat 05:23:00 PM 36.8882 28.6739 310° West  Level Estimated
Sat 05:24:00 PM 36.9671 28.5566 310° West  Level Estimated
Sat 05:25:00 PM 37.0458 28.4391 310° West  Level Estimated
Sat 05:26:00 PM 37.1244 28.3214 310° West  Level Estimated
Sat 05:27:00 PM 37.2029 28.2034 310° West  Level Estimated
Sat 05:28:00 PM 37.2813 28.0852 310° West  Level Estimated
Sat 05:29:00 PM 37.3596 27.9667 310° West  Level Estimated
Sat 05:30:00 PM 37.4377 27.8480 310° West  Level Estimated
Sat 05:31:00 PM 37.5158 27.7290 310° West  Level Estimated
Sat 05:32:00 PM 37.5937 27.6098 310° West  Level Estimated
Sat 05:33:00 PM 37.6715 27.4903 309° West  Level Estimated
Sat 05:34:00 PM 37.7491 27.3706 309° West  Level Estimated
Sat 05:35:00 PM 37.8267 27.2506 309° West  Level Estimated
Sat 05:36:00 PM 37.9041 27.1304 309° West  Level Estimated
Sat 05:37:00 PM 37.9814 27.0099 309° West  Level Estimated
Sat 05:38:00 PM 38.0586 26.8892 309° West  Level Estimated
Sat 05:39:00 PM 38.1356 26.7682 309° West  Level Estimated
Sat 05:40:00 PM 38.2126 26.6469 309° West  Level Estimated
Sat 05:41:00 PM 38.2894 26.5254 309° West  Level Estimated
Sat 05:42:00 PM 38.3661 26.4037 309° West  Level Estimated
Sat 05:43:00 PM 38.4426 26.2816 309° West  Level Estimated
Sat 05:44:00 PM 38.5191 26.1592 309° West  Level Estimated
Sat 05:45:00 PM 38.5956 26.0365 309° West  Level Estimated
Sat 05:46:00 PM 38.6718 25.9135 308° West  Level Estimated
Sat 05:47:00 PM 38.7480 25.7903 308° West  Level Estimated
Sat 05:48:00 PM 38.8240 25.6667 308° West  Level Estimated
Sat 05:49:00 PM 38.8999 25.5430 308° West  Level Estimated
Sat 05:50:00 PM 38.9757 25.4190 308° West  Level Estimated
Sat 05:51:00 PM 39.0513 25.2947 308° West  Level Estimated
Sat 05:52:00 PM 39.1268 25.1701 308° West  Level Estimated
Sat 05:53:00 PM 39.2022 25.0453 308° West  Level Estimated
Sat 05:54:00 PM 39.2774 24.9202 308° West  Level Estimated
Sat 05:55:00 PM 39.3525 24.7948 308° West  Level Estimated
Sat 05:56:00 PM 39.4275 24.6692 308° West  Level Estimated
Sat 05:57:00 PM 39.5023 24.5433 308° West  Level Estimated
Sat 05:58:00 PM 39.5770 24.4171 308° West  Level Estimated
Sat 05:59:00 PM 39.6515 24.2906 307° West  Level Estimated
Sat 06:00:00 PM 39.7260 24.1639 307° West  Level Estimated
Sat 06:01:00 PM 39.8002 24.0369 307° West  Level Estimated
Sat 06:02:00 PM 39.8744 23.9097 307° West  Level Estimated
Sat 06:03:00 PM 39.9484 23.7821 307° West  Level Estimated
Sat 06:04:00 PM 40.0222 23.6543 307° West  Level Estimated
Sat 06:05:00 PM 40.0960 23.5262 307° West  Level Estimated
Sat 06:06:00 PM 40.1695 23.3978 307° West  Level Estimated
Sat 06:07:00 PM 40.2430 23.2692 307° West  Level Estimated
Sat 06:08:00 PM 40.3163 23.1402 307° West  Level Estimated
Sat 06:08:28 PM 40.8112 23.3005 321° Northwest 472 543 32,000  Level FlightAware ADS-B
Sat 06:08:59 PM 40.8678 23.2400 321° Northwest 472 543 32,000  Level FlightAware ADS-B
Sat 06:09:39 PM 40.9351 23.1679 321° Northwest 471 542 32,000  Level FlightAware ADS-B
Sat 06:10:19 PM 40.9992 23.0989 321° Northwest 470 541 32,000  Level FlightAware ADS-B
Sat 06:10:58 PM 41.0650 23.0278 320° Northwest 470 541 32,000  Level FlightAware ADS-B
Sat 06:12:39 PM 41.2125 22.8152 312° West 468 539 32,000  Level FlightAware ADS-B
Sat 06:13:19 PM 41.2716 22.7287 312° West 467 537 32,000  Level FlightAware ADS-B
Sat 06:13:59 PM 41.3288 22.6445 312° West 469 540 32,000  Level FlightAware ADS-B
Sat 06:14:39 PM 41.3890 22.5546 311° West 465 535 32,000  Level FlightAware ADS-B
Sat 06:15:19 PM 41.4443 22.4715 312° West 468 539 32,000  Level FlightAware ADS-B
Sat 06:15:59 PM 41.5022 22.3843 312° West 469 540 32,000  Level FlightAware ADS-B
Sat 06:16:39 PM 41.5580 22.3002 312° West 471 542 32,000  Level FlightAware ADS-B
Sat 06:17:19 PM 41.6188 22.2083 311° West 471 542 32,000  Level FlightAware ADS-B
Sat 06:17:59 PM 41.6765 22.1210 311° West 472 543 32,000  Level FlightAware ADS-B
Sat 06:18:55 PM 41.7551 22.0016 311° West 471 542 32,000  Level FlightAware ADS-B
Sat 06:19:31 PM 41.8063 21.9236 311° West 471 542 32,000  Level FlightAware ADS-B
Sat 06:20:08 PM 41.8633 21.8363 312° West 470 541 32,000  Level FlightAware ADS-B (LIBX)
Sat 06:20:38 PM 41.9036 21.7747 312° West 469 540 32,000  Level FlightAware ADS-B (LIBX)
Sat 06:21:08 PM 41.9480 21.7064 312° West 470 541 32,000  Level FlightAware ADS-B (LIBX)
Sat 06:21:09 PM 41.9465 21.7086 311° West 470 541 32,000  Level FlightAware ADS-B
Sat 06:21:39 PM 41.9915 21.6395 312° West 472 543 32,000  Level FlightAware ADS-B (LIBX)
Sat 06:22:09 PM 42.0346 21.5729 311° West 472 543 32,000  Level FlightAware ADS-B (LIBX)
Sat 06:22:34 PM 42.0701 21.5180 311° West 472 543 32,000  Level FlightAware ADS-B (LIBX)
Sat 06:23:08 PM 42.1202 21.4403 311° West 472 543 32,000  Level FlightAware ADS-B (LIBX)
Sat 06:23:38 PM 42.1631 21.3737 311° West 472 543 32,000  Level FlightAware ADS-B (LIBX)
Sat 06:23:59 PM 42.1676 21.3665 311° West 472 543 32,000  Level FlightAware ADS-B (LIBX)
Sat 06:25:14 PM 42.2809 21.1900 311° West 477 549 32,000  Level FlightAware ADS-B (LIBX)
Sat 06:25:18 PM 42.3024 21.1562 311° West 477 549 32,000  Level FlightAware ADS-B
Sat 06:25:48 PM 42.3492 21.0829 311° West 479 551 32,000  Level FlightAware ADS-B (LIBX)
Sat 06:26:18 PM 42.3930 21.0140 311° West 478 550 32,000  Level FlightAware ADS-B (LIBX)
Sat 06:26:49 PM 42.4367 20.9449 311° West 477 549 32,000  Level FlightAware ADS-B (LIBX)
Sat 06:26:59 PM 42.4512 20.9220 311° West 477 549 32,000  Level FlightAware ADS-B
Sat 06:27:08 PM 42.4636 20.9025 311° West 478 550 32,000  Level FlightAware ADS-B (LIBX)
Sat 06:27:58 PM 42.5308 20.7962 311° West 478 550 32,000  Level FlightAware ADS-B (LIBX)
Sat 06:28:58 PM 42.6231 20.6493 311° West 481 554 32,000  Level FlightAware ADS-B (LIBX)
Sat 06:29:14 PM 42.6431 20.6173 311° West 481 554 32,000  Level FlightAware ADS-B (LIBX)
Sat 06:29:44 PM 42.6893 20.5435 311° West 481 554 32,000  Level FlightAware ADS-B (LIBX)
Sat 06:30:43 PM 42.7747 20.4067 311° West 481 554 32,000  Level FlightAware ADS-B (LIBX)
Sat 06:31:12 PM 42.8146 20.3426 311° West 483 556 32,000  Level FlightAware ADS-B (LIBX)
Sat 06:32:23 PM 42.9204 20.1772 311° West 483 556 32,000  Level FlightAware ADS-B (LIBX)
Sat 06:32:53 PM 42.9566 20.1212 312° West 484 557 32,000  Level FlightAware ADS-B (LIBX)
Sat 06:33:23 PM 43.0094 20.0390 312° West 484 557 32,000  Level FlightAware ADS-B (LIBX)
Sat 06:33:44 PM 43.0340 20.0005 311° West 484 557 32,000  Level FlightAware ADS-B (LIBX)
Sat 06:34:22 PM 43.0847 19.9209 312° West 484 557 32,000  Level FlightAware ADS-B (LIBX)
Sat 06:35:24 PM 43.1854 19.7621 311° West 483 556 32,000  Level FlightAware ADS-B (LIBX)
Sat 06:35:53 PM 43.2302 19.6912 311° West 482 555 32,000  Level FlightAware ADS-B (LIBX)
Sat 06:36:23 PM 43.2723 19.6245 311° West 482 555 32,000  Level FlightAware ADS-B (LIBX)
Sat 06:36:53 PM 43.3170 19.5535 311° West 481 554 32,000  Level FlightAware ADS-B (LIBX)
Sat 06:37:23 PM 43.3596 19.4856 311° West 481 554 32,000  Level FlightAware ADS-B (LIBX)
Sat 06:37:53 PM 43.4036 19.4153 311° West 482 555 32,000  Level FlightAware ADS-B (LIBX)
Sat 06:38:23 PM 43.4371 19.3617 311° West 482 555 32,000  Level FlightAware ADS-B (LIBX)
Sat 06:42:23 PM 43.7918 18.7882 311° West 491 565 32,000  Level FlightAware ADS-B (LIBX)
Sat 06:42:53 PM 43.8386 18.7115 311° West 490 564 32,000  Level FlightAware ADS-B (LIBX)
Sat 06:43:23 PM 43.8862 18.6334 311° West 488 562 32,000  Level FlightAware ADS-B (LIBX)
Sat 06:43:53 PM 43.9239 18.5712 310° West 488 562 32,000  Level FlightAware ADS-B (LIBX)
Sat 06:44:22 PM 43.9674 18.4997 311° West 488 562 32,000  Level FlightAware ADS-B (LIBX)
Sat 06:45:27 PM 44.0659 18.3370 311° West 488 562 32,000  Level FlightAware ADS-B (LIBX)
Sat 06:45:49 PM 44.0973 18.2849 310° West 486 559 32,000  Level FlightAware ADS-B (LIBX)
Sat 06:46:28 PM 44.1529 18.1924 310° West 485 558 32,000  Level FlightAware ADS-B (LIBX)
Sat 06:46:31 PM 44.1570 18.1854 310° West 485 558 32,000  Level FlightAware ADS-B (LIBX)
Sat 07:08:40 PM 46.0591 14.8764 309° West 497 572 32,000  Level FlightAware ADS-B (EDDM / MUC)
Sat 07:09:20 PM 46.1166 14.7751 309° West 497 572 32,000  Level FlightAware ADS-B (EDDM / MUC)
Sat 07:09:50 PM 46.1607 14.6972 309° West 495 570 32,000  Level FlightAware ADS-B (EDDM / MUC)
Sat 07:10:56 PM 46.2546 14.5308 309° West 495 570 32,000  Level FlightAware ADS-B (EDDM / MUC)
Sat 07:11:36 PM 46.3104 14.4313 309° West 497 572 32,000  Level FlightAware ADS-B (EDDM / MUC)
Sat 07:12:14 PM 46.3678 14.3287 309° West 499 574 32,000  Level FlightAware ADS-B (EDDM / MUC)
Sat 07:12:54 PM 46.4253 14.2255 309° West 498 573 32,000  Level FlightAware ADS-B (EDDM / MUC)
Sat 07:13:24 PM 46.4688 14.1474 309° West 499 574 32,000  Level FlightAware ADS-B (EDDM / MUC)
Sat 07:13:54 PM 46.5112 14.0707 309° West 498 573 32,000  Level FlightAware ADS-B (EDDM / MUC)
Sat 07:14:30 PM 46.5629 13.9770 309° West 500 575 32,000  Level FlightAware ADS-B (EDDM / MUC)
Sat 07:15:06 PM 46.6158 13.8810 309° West 502 578 32,000  Level FlightAware ADS-B (ETSE)
Sat 07:15:36 PM 46.6592 13.8021 309° West 502 578 32,000  Level FlightAware ADS-B (ETSE)
Sat 07:16:07 PM 46.6962 13.7345 308° West 503 579 32,000  Level FlightAware ADS-B (ETSE)
Sat 07:16:41 PM 46.7507 13.6345 308° West 502 578 32,000  Level FlightAware ADS-B (EDDM / MUC)
Sat 07:17:13 PM 46.7998 13.5442 308° West 503 579 32,000  Level FlightAware ADS-B (EDDM / MUC)
Sat 07:17:44 PM 46.8431 13.4641 308° West 504 580 32,000  Level FlightAware ADS-B (EDDM / MUC)
Sat 07:18:14 PM 46.8870 13.3829 308° West 504 580 32,000  Level FlightAware ADS-B (EDDM / MUC)
Sat 07:18:48 PM 46.9360 13.2920 308° West 504 580 32,000  Level FlightAware ADS-B (ETSE)
Sat 07:19:24 PM 46.9875 13.1960 308° West 504 580 32,000  Level FlightAware ADS-B (EDDM / MUC)
Sat 07:19:55 PM 47.0300 13.1166 308° West 503 579 32,000  Level FlightAware ADS-B (EDDM / MUC)
Sat 07:20:25 PM 47.0742 13.0338 308° West 500 575 32,000  Level FlightAware ADS-B (EDDM / MUC)
Sat 07:20:58 PM 47.1190 12.9495 308° West 500 575 32,000  Level FlightAware ADS-B (ETSE)
Sat 07:21:37 PM 47.1750 12.8438 308° West 498 573 32,000  Level FlightAware ADS-B (ETSE)
Sat 07:22:08 PM 47.2201 12.7584 308° West 498 573 32,000  Level FlightAware ADS-B (ETSE)
Sat 07:22:44 PM 47.2703 12.6630 308° West 498 573 32,000  Level FlightAware ADS-B (EDDM / MUC)
Sat 07:23:14 PM 47.3138 12.5801 308° West 499 574 32,000  Level FlightAware ADS-B (EDDM / MUC)
Sat 07:23:44 PM 47.3548 12.5020 308° West 499 574 32,000  Level FlightAware ADS-B (EDDM / MUC)
Sat 07:24:14 PM 47.3984 12.4185 307° West 500 575 32,000  Level FlightAware ADS-B (EDDM / MUC)
Sat 07:24:47 PM 47.4419 12.3346 308° West 503 579 32,000  Level FlightAware ADS-B (ETSE)
Sat 07:25:17 PM 47.4863 12.2491 307° West 505 581 32,000  Level FlightAware ADS-B (ETSE)
Sat 07:25:48 PM 47.5302 12.1645 307° West 506 582 32,000  Level FlightAware ADS-B (ETSE)
Sat 07:26:25 PM 47.5829 12.0619 307° West 502 578 32,000  Level FlightAware ADS-B (EDDM / MUC)
Sat 07:26:58 PM 47.6245 11.9809 307° West 501 577 32,000  Level FlightAware ADS-B (ETSE)
Sat 07:27:31 PM 47.6552 11.9212 307° West 500 575 32,000  Level FlightAware ADS-B (EDDM / MUC)
Sat 07:28:02 PM 47.7180 11.7964 306° West 500 575 32,000  Level FlightAware ADS-B (EDDM / MUC)
Sat 07:28:32 PM 47.7559 11.7155 304° West 500 575 32,000  Level FlightAware ADS-B (EDDM / MUC)
Sat 07:29:02 PM 47.7942 11.6304 303° West 495 570 32,000  Level FlightAware ADS-B (EDDM / MUC)
Sat 07:29:32 PM 47.8324 11.5435 303° West 494 568 32,000  Level FlightAware ADS-B (EDDM / MUC)
Sat 07:30:06 PM 47.8734 11.4482 303° West 493 567 32,000  Level FlightAware ADS-B (EDDM / MUC)
Sat 07:30:12 PM 47.8820 11.4283 302° West 493 567 32,000  Level FlightAware ADS-B (EDDM / MUC)
Sat 07:30:46 PM 47.9213 11.3361 302° West 491 565 32,000  Level FlightAware ADS-B (EDDM / MUC)
Sat 07:31:16 PM 47.9587 11.2483 302° West 489 563 32,000  Level FlightAware ADS-B (EDDM / MUC)
Sat 07:31:47 PM 47.9962 11.1603 302° West 489 563 32,000  Level FlightAware ADS-B (EDDM / MUC)
Sat 07:32:21 PM 48.0384 11.0607 302° West 490 564 32,000  Level FlightAware ADS-B (ETSE)
Sat 07:32:52 PM 48.0759 10.9723 302° West 490 564 32,000  Level FlightAware ADS-B (EDDM / MUC)
Sat 07:33:22 PM 48.1107 10.8903 302° West 491 565 32,000  Level FlightAware ADS-B (ETSE)
Sat 07:33:56 PM 48.1526 10.7908 302° West 493 567 32,000  Level FlightAware ADS-B (EDDM / MUC)
Sat 07:34:26 PM 48.1892 10.7039 302° West 493 567 32,000  Level FlightAware ADS-B (EDDM / MUC)
Sat 07:34:56 PM 48.2250 10.6186 302° West 493 567 32,000  Level FlightAware ADS-B (EDDM / MUC)
Sat 07:35:31 PM 48.2674 10.5171 302° West 491 565 32,000  Level FlightAware ADS-B (ETSE)
Sat 07:36:01 PM 48.3038 10.4296 302° West 491 565 32,000  Level FlightAware ADS-B (ETSE)
Sat 07:36:39 PM 48.3407 10.3407 302° West 490 564 32,000  Level FlightAware ADS-B (ETSE)
Sat 07:37:12 PM 48.3843 10.2351 302° West 487 560 32,000  Level FlightAware ADS-B (EDDM / MUC)
Sat 07:37:42 PM 48.4216 10.1446 302° West 486 559 32,000  Level FlightAware ADS-B (ETSE)
Sat 07:38:12 PM 48.4601 10.0508 302° West 487 560 32,000  Level FlightAware ADS-B (ETSE)
Sat 07:38:48 PM 48.4872 9.9845 302° West 488 562 32,000  Level FlightAware ADS-B (ETSE)
Sat 07:39:22 PM 48.5413 9.8520 302° West 483 556 32,000  Level FlightAware ADS-B (ETSE)
Sat 07:40:06 PM 48.5507 9.8288 301° West 479 551 32,000  Level FlightAware ADS-B (ETSE)
Sat 07:40:40 PM 48.6151 9.6703 301° West 479 551 32,000  Level FlightAware ADS-B (ETSE)
Sat 07:41:12 PM 48.6689 9.5364 301° West 478 550 32,000  Level FlightAware ADS-B (ETSE)
Sat 07:42:01 PM 48.7246 9.3976 301° West 478 550 32,000  Level FlightAware ADS-B (ETSE)
Sat 07:42:31 PM 48.7583 9.3129 301° West 476 548 32,000  Level FlightAware ADS-B (ETSE)
Sat 07:43:12 PM 48.8141 9.1727 301° West 479 551 32,000  Level FlightAware ADS-B (KGHG)
Sat 07:44:22 PM 48.8848 8.9940 301° West 479 551 32,000  Level FlightAware ADS-B (ETSE)
Sat 07:46:04 PM 48.9883 8.7298 301° West 482 555 32,000  Level FlightAware ADS-B
Sat 07:46:55 PM 49.0592 8.5474 301° West 483 556 32,000  Level FlightAware ADS-B
Sat 07:47:00 PM 49.0236 8.5497 295° West  Level Estimated
Sat 07:47:26 PM 49.0940 8.4575 300° West 484 557 32,000  Level FlightAware ADS-B
Sat 07:48:03 PM 49.1337 8.3545 300° West 484 557 32,000  Level FlightAware ADS-B
Sat 07:50:40 PM 49.3127 7.8841 300° West 481 554 32,000  Level FlightAware ADS-B
Sat 07:52:47 PM 49.4522 7.5123 300° West 480 552 32,000  Level FlightAware ADS-B
Sat 07:53:26 PM 49.4961 7.3942 300° West 481 554 32,000  Level FlightAware ADS-B
Sat 07:55:00 PM 49.5749 7.1242 294° West  Level Estimated
Sat 07:56:00 PM 49.6249 6.9513 294° West  Level Estimated
Sat 07:56:32 PM 49.6972 6.8456 299° West 474 545 32,000  Level FlightAware ADS-B (EBSG)
Sat 07:57:13 PM 49.6972 6.8456 299° West 473 544 32,000  Level FlightAware ADS-B (EBSG)
Sat 07:58:01 PM 49.7852 6.6018 299° West 474 545 32,000  Level FlightAware ADS-B (EBSG)
Sat 07:58:39 PM 49.8317 6.4717 298° West 473 544 32,000  Level FlightAware ADS-B (EHGR / GLZ)
Sat 07:59:13 PM 49.8643 6.3744 297° West 470 541 32,000  Level FlightAware ADS-B (EDKL)
Sat 08:00:03 PM 49.9149 6.2223 297° West 470 541 32,000  Level FlightAware ADS-B (EDKL)
Sat 08:00:33 PM 49.9393 6.1494 297° West 470 541 32,000  Level FlightAware ADS-B (EDKL)
Sat 08:01:13 PM 49.9772 6.0356 297° West 470 541 32,000  Level FlightAware ADS-B (EDKL)
Sat 08:01:46 PM 50.0158 5.9195 297° West 461 531 32,000  Level FlightAware ADS-B (EHGR / GLZ)
Sat 08:02:23 PM 50.0496 5.8172 297° West 470 541 32,000  Level FlightAware ADS-B (EDKL)
Sat 08:02:59 PM 50.0863 5.7059 297° West 458 527 32,000  Level FlightAware ADS-B (EBSG)
Sat 08:03:32 PM 50.1184 5.6078 297° West 458 527 32,000  Level FlightAware ADS-B (EHGR / GLZ)
Sat 08:04:03 PM 50.1481 5.5166 297° West 458 527 32,000  Level FlightAware ADS-B (EHGR / GLZ)
Sat 08:04:33 PM 50.1761 5.4304 297° West 458 527 32,000  Level FlightAware ADS-B (EHGR / GLZ)
Sat 08:05:08 PM 50.2098 5.3264 297° West 459 528 32,000  Level FlightAware ADS-B (EHGR / GLZ)
Sat 08:05:38 PM 50.2387 5.2370 296° West 453 521 32,000  Level FlightAware ADS-B (EHGR / GLZ)
Sat 08:06:08 PM 50.2666 5.1502 296° West 452 520 32,000  Level FlightAware ADS-B (EHGR / GLZ)
Sat 08:06:38 PM 50.2948 5.0620 296° West 453 521 32,000  Level FlightAware ADS-B (EHGR / GLZ)
Sat 08:07:09 PM 50.3240 4.9705 296° West 452 520 32,000  Level FlightAware ADS-B (EHGR / GLZ)
Sat 08:07:24 PM 50.3383 4.9255 295° West 452 520 32,000  Level FlightAware ADS-B (EHGR / GLZ)
Sat 08:07:46 PM 50.3582 4.8628 295° West 452 520 32,000  Level FlightAware ADS-B (EHGR / GLZ)
Sat 08:08:10 PM 50.3813 4.7900 296° West 456 525 32,000  Level FlightAware ADS-B (EBSG)
Sat 08:08:40 PM 50.4083 4.7043 296° West 457 526 32,000  Level FlightAware ADS-B (EBSG)
Sat 08:09:10 PM 50.4347 4.6204 296° West 457 526 32,000  Level FlightAware ADS-B (EBSG)
Sat 08:09:30 PM 50.4542 4.5585 296° West 457 526 32,000  Level FlightAware ADS-B (EBSG)
Sat 08:10:00 PM 50.4833 4.4654 295° West 453 521 32,000  Level FlightAware ADS-B
Sat 08:10:12 PM 50.4942 4.4301 295° West 453 521 32,000  Level FlightAware ADS-B (EHGR / GLZ)
Sat 08:10:30 PM 50.5115 4.3747 296° West 456 525 32,000  Level FlightAware ADS-B (EGLF / FAB)
Sat 08:11:00 PM 50.5360 4.2957 296° West 456 525 32,000  Level FlightAware ADS-B (EBSG)
Sat 08:11:13 PM 50.5508 4.2478 295° West 452 520 32,000  Level FlightAware ADS-B (EHGR / GLZ)
Sat 08:11:43 PM 50.5780 4.1623 295° West 417 480 32,000  Level FlightAware UK
Sat 08:11:43 PM 50.5783 4.1588 295° West 453 521 32,000  Level FlightAware ADS-B (EHGR / GLZ)
Sat 08:12:08 PM 50.6011 4.0847 295° West 453 521 32,000  Level FlightAware ADS-B
Sat 08:12:41 PM 50.6313 3.9863 296° West 456 525 32,000  Level FlightAware ADS-B (EGLF / FAB)
Sat 08:13:11 PM 50.6588 3.8962 296° West 456 525 32,000  Level FlightAware ADS-B (EGLF / FAB)
Sat 08:13:42 PM 50.6850 3.8103 296° West 455 524 32,000  Level FlightAware ADS-B (EGLC / LCY)
Sat 08:14:13 PM 50.7118 3.7216 296° West 454 522 32,000  Level FlightAware ADS-B (EGLC / LCY)
Sat 08:14:18 PM 50.7195 3.6963 295° West 455 524 32,000  Level FlightAware ADS-B
Sat 08:14:49 PM 50.7452 3.6111 295° West 455 524 32,000  Level FlightAware ADS-B (EGLC / LCY)
Sat 08:15:20 PM 50.7722 3.5211 295° West 455 524 32,000  Level FlightAware ADS-B (EGLF / FAB)
Sat 08:15:51 PM 50.8023 3.4208 295° West 455 524 32,000  Level FlightAware ADS-B (EGLF / FAB)
Sat 08:16:24 PM 50.8317 3.3222 295° West 454 522 32,000  Level FlightAware ADS-B (EBSG)
Sat 08:17:01 PM 50.8583 3.2132 288° West 453 521 32,000  Level FlightAware ADS-B (EGLF / FAB)
Sat 08:17:22 PM 50.8727 3.1388 285° West 450 518 32,000  Level FlightAware ADS-B (EHGR / GLZ)
Sat 08:17:49 PM 50.8877 3.0541 285° West 451 519 32,000  Level FlightAware ADS-B (EGLC / LCY)
Sat 08:17:52 PM 50.8889 3.0478 284° West 449 517 32,000  Level FlightAware ADS-B
Sat 08:18:24 PM 50.9071 2.9414 285° West 450 518 32,000 -182 Level FlightAware ADS-B (EGLC / LCY)
Sat 08:18:25 PM 50.9070 2.9411 284° West 450 518 31,900  Descending FlightAware UK
Sat 08:18:56 PM 50.9231 2.8463 285° West 451 519 32,000 97 Climbing FlightAware ADS-B (KUAO)
Sat 08:19:27 PM 50.9404 2.7427 285° West 452 520 32,000  Level FlightAware ADS-B (EGLC / LCY)
Sat 08:19:58 PM 50.9569 2.6436 285° West 452 520 32,000  Level FlightAware ADS-B (EHGR / GLZ)
Sat 08:20:31 PM 50.9740 2.5407 285° West 452 520 32,000  Level FlightAware ADS-B (EGLF / FAB)
Sat 08:21:01 PM 50.9901 2.4425 285° West 450 518 32,000  Level FlightAware ADS-B (EGLF / FAB)
Sat 08:21:31 PM 51.0048 2.3530 284° West 449 517 32,000  Level FlightAware ADS-B (EGLF / FAB)
Sat 08:22:08 PM 51.0223 2.2451 284° West 449 517 32,000  Level FlightAware ADS-B
Sat 08:22:39 PM 51.0400 2.1359 284° West 449 517 32,000  Level FlightAware ADS-B
Sat 08:23:09 PM 51.0556 2.0387 284° West 449 517 32,000  Level FlightAware ADS-B (EGLC / LCY)
Sat 08:23:22 PM 51.0631 1.9923 283° West 447 514 32,000  Level FlightAware ADS-B (EHGR / GLZ)
Sat 08:23:33 PM 51.0677 1.9633 284° West 449 517 32,000  Level FlightAware ADS-B (EGLC / LCY)
Sat 08:24:06 PM 51.0843 1.8589 284° West 448 516 32,000  Level FlightAware ADS-B (EGLC / LCY)
Sat 08:24:27 PM 51.0958 1.7864 283° West 447 514 32,000  Level FlightAware ADS-B
Sat 08:24:31 PM 51.0979 1.7733 284° West 448 516 32,000  Level FlightAware ADS-B (KUAO)
Sat 08:24:50 PM 51.1072 1.7142 284° West 449 517 32,000  Level FlightAware ADS-B (EGLC / LCY)
Sat 08:25:06 PM 51.1156 1.6602 284° West 449 517 32,000  Level FlightAware ADS-B
Sat 08:25:25 PM 51.1250 1.6006 284° West 449 517 32,000  Level FlightAware ADS-B
Sat 08:25:48 PM 51.1364 1.5275 283° West 446 513 32,000  Level FlightAware ADS-B
Sat 08:25:52 PM 51.1384 1.5147 283° West 446 513 32,000  Level FlightAware ADS-B (EHGR / GLZ)
Sat 08:26:07 PM 51.1454 1.4691 284° West 447 514 32,000  Level FlightAware ADS-B
Sat 08:26:26 PM 51.1532 1.4189 284° West 445 512 32,000  Level FlightAware ADS-B
Sat 08:26:38 PM 51.1609 1.3690 283° West 443 510 32,000  Level FlightAware ADS-B (LERS / REU)
Sat 08:27:06 PM 51.1740 1.2790 281° West 442 509 32,000  Level FlightAware ADS-B
Sat 08:27:19 PM 51.1784 1.2413 279° West 441 507 32,000  Level FlightAware ADS-B (EGSR)
Sat 08:27:24 PM 51.1804 1.2218 279° West 442 509 32,000  Level FlightAware ADS-B (EGLC / LCY)
Sat 08:27:55 PM 51.1883 1.1236 276° West 442 509 32,000  Level FlightAware ADS-B (LERS / REU)
Sat 08:28:08 PM 51.1910 1.0826 276° West 442 509 32,000  Level FlightAware ADS-B
Sat 08:28:27 PM 51.1946 1.0196 274° West 440 506 32,000  Level FlightAware ADS-B (EGKK / LGW)
Sat 08:28:59 PM 51.1999 0.9214 275° West 440 506 32,000 -88 Level FlightAware ADS-B (EGLC / LCY)
Sat 08:29:35 PM 51.2062 0.7989 275° West 440 506 31,900  Descending FlightAware UK
Sat 08:29:39 PM 51.2066 0.7888 275° West 440 506 32,000 176 Climbing FlightAware ADS-B (EGLC / LCY)
Sat 08:30:09 PM 51.2116 0.6921 275° West 440 506 32,000  Level FlightAware ADS-B (EGLC / LCY)
Sat 08:30:40 PM 51.2170 0.5892 275° West 439 505 32,000  Level FlightAware ADS-B
Sat 08:31:11 PM 51.2221 0.4910 275° West 438 504 32,000  Level FlightAware ADS-B (EGLF / FAB)
Sat 08:31:49 PM 51.2244 0.4449 275° West 436 502 32,000  Level FlightAware ADS-B
Sat 08:32:41 PM 51.2368 0.2035 275° West 436 502 32,000  Level FlightAware UK
Sat 08:32:51 PM 51.2383 0.1713 275° West 436 502 32,000  Level FlightAware ADS-B (EGLF / FAB)
Sat 08:33:21 PM 51.2429 0.0764 275° West 436 502 32,000  Level FlightAware ADS-B (EGLF / FAB)
Sat 08:33:26 PM 51.2439 0.0575 274° West 436 502 32,000  Level FlightAware ADS-B
Sat 08:33:59 PM 51.2487 -0.0435 274° West 437 503 32,000  Level FlightAware ADS-B (KUAO)
Sat 08:34:29 PM 51.2535 -0.1445 274° West 437 503 32,000  Level FlightAware ADS-B
Sat 08:35:01 PM 51.2581 -0.2455 274° West 436 502 32,000  Level FlightAware ADS-B (EGLF / FAB)
Sat 08:35:31 PM 51.2623 -0.3376 274° West 435 501 32,000  Level FlightAware ADS-B (EGLF / FAB)
Sat 08:35:58 PM 51.2663 -0.4270 273° West 435 501 32,000  Level FlightAware ADS-B
Sat 08:36:09 PM 51.2679 -0.4634 273° West 435 501 32,000  Level FlightAware ADS-B
Sat 08:36:20 PM 51.2693 -0.4947 273° West 435 501 32,000  Level FlightAware ADS-B (EGKK / LGW)
Sat 08:36:27 PM 51.2700 -0.5109 274° West 435 501 32,000  Level FlightAware ADS-B (EGLC / LCY)
Sat 08:36:38 PM 51.2719 -0.5550 273° West 435 501 32,000  Level FlightAware ADS-B (EGKK / LGW)
Sat 08:36:45 PM 51.2729 -0.5780 273° West 435 501 32,000  Level FlightAware ADS-B (LERS / REU)
Sat 08:36:49 PM 51.2734 -0.5898 273° West 435 501 32,000  Level FlightAware ADS-B
Sat 08:37:00 PM 51.2749 -0.6246 273° West 434 499 32,000  Level FlightAware ADS-B (EGKK / LGW)
Sat 08:37:09 PM 51.2761 -0.6533 273° West 434 499 32,000  Level FlightAware ADS-B
Sat 08:37:12 PM 51.2765 -0.6632 273° West 434 499 32,000  Level FlightAware ADS-B
Sat 08:37:19 PM 51.2775 -0.6868 273° West 435 501 32,000  Level FlightAware ADS-B (EGKK / LGW)
Sat 08:37:29 PM 51.2788 -0.7184 273° West 435 501 32,000  Level FlightAware ADS-B
Sat 08:37:40 PM 51.2799 -0.7437 274° West 435 501 32,000  Level FlightAware ADS-B (EGLF / FAB)
Sat 08:37:46 PM 51.2807 -0.7631 273° West 435 501 32,000  Level FlightAware ADS-B
Sat 08:37:54 PM 51.2820 -0.7960 273° West 434 499 32,000  Level FlightAware ADS-B (LERS / REU)
Sat 08:38:03 PM 51.2833 -0.8263 274° West 434 499 32,000  Level FlightAware ADS-B (EGHS)
Sat 08:38:07 PM 51.2838 -0.8387 273° West 434 499 32,000  Level FlightAware ADS-B (LERS / REU)
Sat 08:38:19 PM 51.2854 -0.8785 273° West 434 499 32,000  Level FlightAware ADS-B (LERS / REU)
Sat 08:38:22 PM 51.2856 -0.8845 273° West 434 499 32,000  Level FlightAware ADS-B (EGNR / CEG)
Sat 08:38:29 PM 51.2867 -0.9107 273° West 433 498 32,000  Level FlightAware ADS-B
Sat 08:38:43 PM 51.2884 -0.9527 273° West 432 497 32,000  Level FlightAware ADS-B
Sat 08:38:52 PM 51.2895 -0.9826 273° West 432 497 32,000  Level FlightAware ADS-B (LERS / REU)
Sat 08:39:06 PM 51.2913 -1.0278 273° West 432 497 32,000  Level FlightAware ADS-B (LERS / REU)
Sat 08:39:09 PM 51.2917 -1.0366 273° West 432 497 32,000  Level FlightAware ADS-B
Sat 08:39:19 PM 51.2929 -1.0685 273° West 432 497 32,000  Level FlightAware ADS-B (LERS / REU)
Sat 08:39:26 PM 51.2937 -1.0891 273° West 432 497 32,000  Level FlightAware ADS-B (EGNR / CEG)
Sat 08:39:29 PM 51.2940 -1.0958 272° West 432 497 32,000  Level FlightAware ADS-B (EGNR / CEG)
Sat 08:39:42 PM 51.2957 -1.1406 272° West 431 496 32,000  Level FlightAware ADS-B
Sat 08:39:49 PM 51.2965 -1.1631 272° West 431 496 32,000  Level FlightAware ADS-B
Sat 08:39:58 PM 51.2976 -1.1923 274° West 432 497 32,000  Level FlightAware ADS-B (EGHA)
Sat 08:40:09 PM 51.2989 -1.2266 272° West 431 496 32,000  Level FlightAware ADS-B (LERS / REU)
Sat 08:40:19 PM 51.3000 -1.2586 272° West 431 496 32,000  Level FlightAware ADS-B
Sat 08:40:29 PM 51.3013 -1.2910 272° West 431 496 32,000  Level FlightAware ADS-B
Sat 08:40:33 PM 51.3018 -1.3043 272° West 431 496 32,000  Level FlightAware ADS-B (LERS / REU)
Sat 08:40:39 PM 51.3023 -1.3208 272° West 430 495 32,000  Level FlightAware ADS-B
Sat 08:40:42 PM 51.3025 -1.3262 272° West 430 495 32,000  Level FlightAware ADS-B (EGNR / CEG)
Sat 08:40:49 PM 51.3036 -1.3557 272° West 430 495 32,000  Level FlightAware ADS-B
Sat 08:40:57 PM 51.3045 -1.3797 272° West 430 495 32,000  Level FlightAware ADS-B (LERS / REU)
Sat 08:41:10 PM 51.3059 -1.4196 272° West 429 494 32,000  Level FlightAware ADS-B
Sat 08:41:21 PM 51.3073 -1.4569 273° West 430 495 32,000  Level FlightAware ADS-B (EGHS)
Sat 08:41:25 PM 51.3077 -1.4692 272° West 430 495 32,000  Level FlightAware ADS-B
Sat 08:41:37 PM 51.3090 -1.5069 272° West 430 495 32,000  Level FlightAware ADS-B (EGDX / DGX)
Sat 08:41:41 PM 51.3094 -1.5177 272° West 430 495 32,000  Level FlightAware ADS-B (EGNR / CEG)
Sat 08:41:58 PM 51.3113 -1.5719 272° West 431 496 32,000  Level FlightAware ADS-B
Sat 08:42:05 PM 51.3121 -1.5960 272° West 431 496 32,000  Level FlightAware ADS-B (LERS / REU)
Sat 08:42:11 PM 51.3125 -1.6084 272° West 431 496 32,000  Level FlightAware ADS-B (EGNR / CEG)
Sat 08:42:14 PM 51.3127 -1.6163 273° West 432 497 32,000  Level FlightAware ADS-B
Sat 08:42:19 PM 51.3135 -1.6382 272° West 431 496 32,000  Level FlightAware ADS-B
Sat 08:42:29 PM 51.3146 -1.6705 272° West 430 495 32,000  Level FlightAware ADS-B (LERS / REU)
Sat 08:42:42 PM 51.3160 -1.7113 273° West 430 495 32,000  Level FlightAware ADS-B (EGHS)
Sat 08:42:49 PM 51.3168 -1.7364 272° West 429 494 32,000  Level FlightAware ADS-B
Sat 08:42:59 PM 51.3178 -1.7651 272° West 429 494 32,000  Level FlightAware ADS-B
Sat 08:43:29 PM 51.3208 -1.8600 273° West 430 495 32,000  Level FlightAware ADS-B
Sat 08:43:59 PM 51.3238 -1.9554 273° West 430 495 32,000  Level FlightAware ADS-B
Sat 08:44:29 PM 51.3267 -2.0505 273° West 430 495 32,000  Level FlightAware ADS-B
Sat 08:45:01 PM 51.3297 -2.1501 273° West 430 495 32,000  Level FlightAware ADS-B (EGLF / FAB)
Sat 08:45:31 PM 51.3325 -2.2456 273° West 431 496 32,000  Level FlightAware ADS-B (EGLF / FAB)
Sat 08:46:01 PM 51.3351 -2.3403 273° West 431 496 32,000  Level FlightAware ADS-B (EGLF / FAB)
Sat 08:46:31 PM 51.3378 -2.4343 273° West 429 494 32,000  Level FlightAware ADS-B (EGLF / FAB)
Sat 08:46:39 PM 51.3381 -2.4453 273° West 429 494 32,000  Level FlightAware ADS-B (EGBP)
Sat 08:47:09 PM 51.3410 -2.5574 272° West 428 493 32,000  Level FlightAware ADS-B (EGYM / MRH)
Sat 08:47:39 PM 51.3434 -2.6517 272° West 428 493 32,000  Level FlightAware ADS-B
Sat 08:48:11 PM 51.3458 -2.7496 272° West 428 493 32,000  Level FlightAware ADS-B (EGLF / FAB)
Sat 08:48:41 PM 51.3481 -2.8441 272° West 427 491 32,000  Level FlightAware ADS-B (EGLF / FAB)
Sat 08:49:11 PM 51.3502 -2.9413 272° West 425 489 32,000  Level FlightAware ADS-B (EGLF / FAB)
Sat 08:49:41 PM 51.3523 -3.0331 272° West 425 489 32,000  Level FlightAware ADS-B (EGLF / FAB)
Sat 08:49:54 PM 51.3533 -3.0771 271° West 426 490 32,000  Level FlightAware ADS-B (EGYM / MRH)
Sat 08:50:00 PM 51.3537 -3.0953 271° West 426 490 32,000  Level FlightAware ADS-B (LERS / REU)
Sat 08:50:05 PM 51.3539 -3.1091 271° West 426 490 32,000  Level FlightAware ADS-B (EGYM / MRH)
Sat 08:50:21 PM 51.3550 -3.1610 272° West 426 490 32,000  Level FlightAware ADS-B (EGLF / FAB)
Sat 08:50:25 PM 51.3553 -3.1729 271° West 426 490 32,000  Level FlightAware ADS-B (EGYM / MRH)
Sat 08:50:30 PM 51.3556 -3.1896 272° West 426 490 32,000  Level FlightAware ADS-B (EGLF / FAB)
Sat 08:50:35 PM 51.3560 -3.2046 271° West 426 490 32,000  Level FlightAware ADS-B (EGYM / MRH)
Sat 08:50:40 PM 51.3563 -3.2203 271° West 426 490 32,000  Level FlightAware ADS-B (EGYM / MRH)
Sat 08:50:45 PM 51.3566 -3.2360 271° West 425 489 32,000  Level FlightAware ADS-B (EGYM / MRH)
Sat 08:51:10 PM 51.3582 -3.3152 271° West 424 488 32,000  Level FlightAware ADS-B
Sat 08:51:15 PM 51.3585 -3.3315 271° West 424 488 32,000  Level FlightAware ADS-B (EGYM / MRH)
Sat 08:51:21 PM 51.3588 -3.3471 271° West 423 487 32,000  Level FlightAware ADS-B (EGYM / MRH)
Sat 08:51:25 PM 51.3591 -3.3626 271° West 423 487 32,000  Level FlightAware ADS-B (EGYM / MRH)
Sat 08:51:35 PM 51.3596 -3.3935 271° West 422 486 32,000  Level FlightAware ADS-B (LERS / REU)
Sat 08:51:41 PM 51.3600 -3.4107 271° West 422 486 32,000  Level FlightAware ADS-B (EGYM / MRH)
Sat 08:51:46 PM 51.3603 -3.4262 271° West 422 486 32,000  Level FlightAware ADS-B (EGYM / MRH)
Sat 08:51:56 PM 51.3609 -3.4586 271° West 422 486 32,000  Level FlightAware ADS-B (EGYM / MRH)
Sat 08:52:01 PM 51.3612 -3.4741 271° West 422 486 32,000  Level FlightAware ADS-B (EGYM / MRH)
Sat 08:52:06 PM 51.3615 -3.4897 271° West 422 486 32,000  Level FlightAware ADS-B (EGYM / MRH)
Sat 08:52:16 PM 51.3620 -3.5182 271° West 421 484 32,000  Level FlightAware ADS-B (EGYM / MRH)
Sat 08:52:19 PM 51.3621 -3.5260 272° West 421 484 32,000  Level FlightAware ADS-B (EGDX / DGX)
Sat 08:52:32 PM 51.3629 -3.5674 272° West 421 484 32,000  Level FlightAware ADS-B
Sat 08:52:48 PM 51.3637 -3.6183 270° West 421 484 32,000  Level FlightAware ADS-B (EGYM / MRH)
Sat 08:52:58 PM 51.3642 -3.6493 270° West 421 484 32,000  Level FlightAware ADS-B (EGYM / MRH)
Sat 08:53:03 PM 51.3644 -3.6664 270° West 421 484 32,000  Level FlightAware ADS-B (EGYM / MRH)
Sat 08:53:16 PM 51.3650 -3.7037 272° West 421 484 32,000  Level FlightAware ADS-B
Sat 08:53:21 PM 51.3653 -3.7208 270° West 422 486 32,000  Level FlightAware ADS-B
Sat 08:53:24 PM 51.3655 -3.7320 272° West 422 486 32,000  Level FlightAware ADS-B (EGDX / DGX)
Sat 08:53:50 PM 51.3667 -3.8110 272° West 422 486 32,000  Level FlightAware ADS-B (EGDM)
Sat 08:53:56 PM 51.3668 -3.8191 272° West 422 486 32,000  Level FlightAware ADS-B (EGLF / FAB)
Sat 08:54:01 PM 51.3673 -3.8474 270° West 422 486 32,000  Level FlightAware ADS-B (LERS / REU)
Sat 08:54:10 PM 51.3674 -3.8543 270° West 422 486 32,000  Level FlightAware ADS-B (EGHA)
Sat 08:54:20 PM 51.3679 -3.8894 271° West 421 484 32,000  Level FlightAware ADS-B (EGCW)
Sat 08:54:26 PM 51.3684 -3.9236 270° West 421 484 32,000  Level FlightAware ADS-B (EGYM / MRH)
Sat 08:54:35 PM 51.3688 -3.9530 270° West 421 484 32,000  Level FlightAware ADS-B (EGYM / MRH)
Sat 08:54:40 PM 51.3689 -3.9670 270° West 421 484 32,000  Level FlightAware ADS-B (EGYM / MRH)
Sat 08:54:45 PM 51.3692 -3.9835 270° West 420 483 32,000  Level FlightAware ADS-B (EGYM / MRH)
Sat 08:54:55 PM 51.3695 -4.0039 271° West 420 483 32,000  Level FlightAware ADS-B (EGDX / DGX)
Sat 08:55:01 PM 51.3698 -4.0309 270° West 420 483 32,000  Level FlightAware ADS-B (EGYM / MRH)
Sat 08:55:05 PM 51.3700 -4.0463 270° West 420 483 32,000  Level FlightAware ADS-B (EGYM / MRH)
Sat 08:55:21 PM 51.3707 -4.0943 270° West 419 482 32,000  Level FlightAware ADS-B (EGYM / MRH)
Sat 08:55:26 PM 51.3709 -4.1094 270° West 419 482 32,000  Level FlightAware ADS-B (EGYM / MRH)
Sat 08:55:36 PM 51.3713 -4.1403 270° West 418 481 32,000  Level FlightAware ADS-B (EGYM / MRH)
Sat 08:55:46 PM 51.3717 -4.1718 270° West 418 481 32,000  Level FlightAware ADS-B (EGYM / MRH)
Sat 08:55:51 PM 51.3719 -4.1887 270° West 418 481 32,000  Level FlightAware ADS-B (EGYM / MRH)
Sat 08:56:12 PM 51.3726 -4.2507 270° West 418 481 32,000  Level FlightAware ADS-B
Sat 08:56:23 PM 51.3730 -4.2847 270° West 418 481 32,000  Level FlightAware ADS-B (EGYM / MRH)
Sat 08:56:31 PM 51.3733 -4.3112 271° West 419 482 32,000  Level FlightAware ADS-B (EGDX / DGX)
Sat 08:56:38 PM 51.3734 -4.3273 271° West 419 482 32,000  Level FlightAware ADS-B (EGLF / FAB)
Sat 08:56:48 PM 51.3739 -4.3634 270° West 419 482 32,000  Level FlightAware ADS-B (EGYM / MRH)
Sat 08:56:58 PM 51.3742 -4.3940 270° West 419 482 32,000  Level FlightAware ADS-B (EGYM / MRH)
Sat 08:57:03 PM 51.3744 -4.4104 270° West 419 482 32,000  Level FlightAware ADS-B (EGYM / MRH)
Sat 08:57:09 PM 51.3745 -4.4265 271° West 418 481 32,000  Level FlightAware ADS-B (EGLF / FAB)
Sat 08:57:39 PM 51.3754 -4.5195 271° West 417 480 32,000  Level FlightAware ADS-B (EGYM / MRH)
Sat 08:58:09 PM 51.3761 -4.6114 271° West 416 479 32,000  Level FlightAware ADS-B (EGCW)
Sat 08:58:39 PM 51.3768 -4.6951 271° West 416 479 32,000  Level FlightAware ADS-B (EGCW)
Sat 08:59:10 PM 51.3775 -4.8004 271° West 418 481 32,000  Level FlightAware ADS-B (EGLF / FAB)
Sat 08:59:41 PM 51.3782 -4.8944 271° West 420 483 32,000  Level FlightAware ADS-B (EGLF / FAB)
Sat 09:00:14 PM 51.3787 -4.9974 270° West 421 484 32,000  Level FlightAware ADS-B (EGYM / MRH)
Sat 09:00:46 PM 51.3792 -5.0948 270° West 421 484 32,000  Level FlightAware ADS-B (CYOW)
Sat 09:01:30 PM 51.3797 -5.2347 270° West 422 486 32,000  Level FlightAware ADS-B (EGYM / MRH)
Sat 09:02:00 PM 51.3799 -5.3262 270° West 422 486 32,000  Level FlightAware ADS-B (EGYM / MRH)
Sat 09:02:36 PM 51.3802 -5.4410 270° West 422 486 32,000  Level FlightAware ADS-B (EGCW)
Sat 09:03:08 PM 51.3802 -5.5380 270° West 424 488 32,000  Level FlightAware ADS-B (EGYM / MRH)
Sat 09:03:38 PM 51.3802 -5.6327 270° West 424 488 32,000  Level FlightAware ADS-B (EGYM / MRH)
Sat 09:04:09 PM 51.3802 -5.6484 270° West 424 488 32,000  Level FlightAware ADS-B (EGCW)
Sat 09:04:14 PM 51.3800 -5.7463 270° West 424 488 32,000 -171 Level FlightAware UK
Sat 09:04:44 PM 51.3799 -5.8404 270° West 424 488 31,900  Descending FlightAware UK
Sat 09:04:45 PM 51.3799 -5.8424 270° West 424 488 32,000 167 Climbing FlightAware ADS-B (EGYM / MRH)
Sat 09:05:20 PM 51.3797 -5.9531 270° West 423 487 32,000  Level FlightAware ADS-B (EGYM / MRH)
Sat 09:05:51 PM 51.3794 -6.0496 270° West 421 484 32,000  Level FlightAware ADS-B (EGCW)
Sat 09:06:21 PM 51.3790 -6.1376 270° West 422 486 32,000  Level FlightAware ADS-B (EGCW)
Sat 09:06:51 PM 51.3785 -6.2302 270° West 423 487 32,000  Level FlightAware ADS-B (EGCW)
Sat 09:07:24 PM 51.3779 -6.3397 270° West 424 488 32,000  Level FlightAware ADS-B (EGYM / MRH)
Sat 09:07:54 PM 51.3772 -6.4320 269° West 424 488 32,000  Level FlightAware ADS-B (EGYM / MRH)
Sat 09:08:26 PM 51.3764 -6.5330 269° West 424 488 32,000  Level FlightAware ADS-B (CYOW)
Sat 09:09:00 PM 51.3755 -6.6389 270° West 423 487 32,000  Level FlightAware ADS-B (EGYM / MRH)
Sat 09:09:04 PM 51.3754 -6.6508 269° West 424 488 32,000  Level FlightAware ADS-B (EGCW)
Sat 09:09:10 PM 51.3753 -6.6552 269° West 423 487 32,000  Level FlightAware ADS-B (EIWF / WAT)
Sat 09:09:21 PM 51.3748 -6.7055 269° West 423 487 32,000  Level FlightAware ADS-B (CYOW)
Sat 09:09:56 PM 51.3738 -6.8126 269° West 423 487 32,000  Level FlightAware ADS-B (EIWF / WAT)
Sat 09:10:06 PM 51.3740 -6.7960 269° West 423 487 32,000  Level FlightAware ADS-B (EGCW)
Sat 09:10:45 PM 51.3721 -6.9676 270° West 421 484 32,000  Level FlightAware ADS-B (EGYM / MRH)
Sat 09:10:56 PM 51.3718 -6.9998 270° West 420 483 32,000  Level FlightAware ADS-B (EGYM / MRH)
Sat 09:11:16 PM 51.3711 -7.0632 270° West 419 482 32,000  Level FlightAware ADS-B (EGYM / MRH)
Sat 09:11:36 PM 51.3704 -7.1171 269° West 419 482 32,000  Level FlightAware ADS-B (EIWF / WAT)
Sat 09:11:56 PM 51.3694 -7.1854 270° West 419 482 32,000  Level FlightAware ADS-B (EGYM / MRH)
Sat 09:12:16 PM 51.3686 -7.2467 270° West 418 481 32,000  Level FlightAware ADS-B (EGYM / MRH)
Sat 09:12:36 PM 51.3676 -7.3098 270° West 417 480 32,000  Level FlightAware ADS-B (EGYM / MRH)
Sat 09:13:11 PM 51.3660 -7.4154 270° West 417 480 32,000  Level FlightAware ADS-B (EGYM / MRH)
Sat 09:13:37 PM 51.3647 -7.4957 269° West 417 480 32,000  Level FlightAware ADS-B (EIWF / WAT)
Sat 09:14:10 PM 51.3629 -7.5989 270° West 417 480 32,000  Level FlightAware ADS-B (EGYM / MRH)
Sat 09:14:16 PM 51.3635 -7.5645 269° West 417 480 32,000  Level FlightAware ADS-B (EIWF / WAT)
Sat 09:14:35 PM 51.3616 -7.6741 268° West 417 480 32,000  Level FlightAware ADS-B (EIWF / WAT)
Sat 09:15:06 PM 51.3599 -7.7704 269° West 417 480 32,000  Level FlightAware ADS-B (EGYM / MRH)
Sat 09:15:50 PM 51.3573 -7.9042 269° West 418 481 32,000  Level FlightAware ADS-B (EGYM / MRH)
Sat 09:16:03 PM 51.3565 -7.9454 269° West 417 480 32,000  Level FlightAware ADS-B (EGYM / MRH)
Sat 09:16:37 PM 51.3543 -8.0508 268° West 416 479 32,000  Level FlightAware ADS-B (EIWF / WAT)
Sat 09:17:17 PM 51.3538 -8.0784 268° West 419 482 32,000  Level FlightAware ADS-B (EIWF / WAT)
Sat 09:17:59 PM 51.3487 -8.3025 268° West 420 483 32,000 -133 Level FlightAware ADS-B (EGYM / MRH)
Sat 09:18:02 PM 51.3494 -8.3107 268° West 420 483 31,900 -182 Descending FlightAware UK
Sat 09:18:32 PM 51.3479 -8.4038 268° West 424 488 31,900 109 Level FlightAware UK
Sat 09:18:57 PM 51.3538 -8.0784 268° West 424 488 32,000  Climbing FlightAware ADS-B (EIWF / WAT)
Sat 09:19:32 PM 51.3415 -8.5917 268° West 424 488 31,900  Descending FlightAware UK
Sat 09:19:36 PM 51.3561 -7.9679 268° West 423 487 32,000 300 Climbing FlightAware ADS-B
Sat 09:20:32 PM 51.3370 -8.7789 268° West 422 486 32,200 628 Climbing FlightAware UK
Sat 09:21:02 PM 51.3346 -8.8719 268° West 420 483 32,900 1,200 Climbing FlightAware UK
Sat 09:21:32 PM 51.3310 -8.9647 266° West 420 483 33,400 559 Climbing FlightAware UK
Sat 09:23:00 PM 51.3234 -9.2377 267° West 421 484 34,000 303 Climbing FlightAware ADS-B
Sat 09:23:31 PM 51.3204 -9.3327 267° West 423 487 34,000  Level FlightAware ADS-B
Sat 09:24:01 PM 51.3171 -9.4285 267° West 425 489 34,000  Level FlightAware ADS-B
Sat 09:24:31 PM 51.3143 -9.5191 267° West 425 489 34,000  Level FlightAware ADS-B
Sat 09:25:11 PM 51.3106 -9.6265 267° West 426 490 34,000  Level FlightAware ADS-B
Sat 09:25:41 PM 51.3068 -9.7340 267° West 429 494 34,000  Level FlightAware ADS-B
Sat 09:26:11 PM 51.3030 -9.8356 267° West 432 497 34,000  Level FlightAware ADS-B
Sat 09:26:50 PM 51.2987 -9.9582 267° West 436 502 34,000  Level FlightAware ADS-B
Sat 09:27:40 PM 51.2926 -10.1183 266° West 435 501 34,000  Level FlightAware ADS-B
Sat 09:28:11 PM 51.2888 -10.2142 266° West 435 501 34,000  Level FlightAware ADS-B
Sat 09:28:41 PM 51.2850 -10.3113 266° West 435 501 34,000  Level FlightAware ADS-B
Sat 09:29:18 PM 51.2801 -10.4307 266° West 436 502 34,000  Level FlightAware ADS-B
Sat 09:29:50 PM 51.2758 -10.5315 266° West 437 503 34,000  Level FlightAware ADS-B
Sat 09:30:23 PM 51.2711 -10.6411 266° West 437 503 34,000  Level FlightAware ADS-B
Sat 09:30:53 PM 51.2670 -10.7374 266° West 438 504 34,000  Level FlightAware ADS-B
Sat 09:31:23 PM 51.2626 -10.8326 266° West 438 504 34,000  Level FlightAware ADS-B
Sat 09:31:54 PM 51.2583 -10.9297 266° West 438 504 34,000  Level FlightAware ADS-B
Sat 09:33:01 PM 51.2482 -11.1465 266° West 437 503 34,000  Level FlightAware ADS-B
Sat 09:33:40 PM 51.2421 -11.2736 266° West 438 504 34,000  Level FlightAware ADS-B
Sat 10:18:00 PM 51.0000 -20.0000 274° West 462 532 34,000  Level ETMS Enhanced Traffic Management System
Sat 10:19:00 PM 51.0002 -20.0055 274° West  Level FlightAware Approximate
Sat 10:20:00 PM 51.0083 -20.1988 274° West  Level FlightAware Approximate
Sat 10:21:00 PM 51.0161 -20.3921 274° West  Level FlightAware Approximate
Sat 10:22:00 PM 51.0236 -20.5854 274° West  Level FlightAware Approximate
Sat 10:23:00 PM 51.0307 -20.7789 273° West  Level FlightAware Approximate
Sat 10:24:00 PM 51.0523 -21.4259 273° West 462 532 34,000  Level FlightAware Transoceanic
Sat 10:25:00 PM 51.0583 -21.6298 273° West 462 532 34,000  Level FlightAware Transoceanic
Sat 10:26:00 PM 51.0640 -21.8338 272° West 462 532 34,000  Level FlightAware Transoceanic
Sat 10:27:00 PM 51.0694 -22.0379 272° West 462 532 34,000  Level FlightAware Transoceanic
Sat 10:28:00 PM 51.0743 -22.2419 272° West 462 532 34,000  Level FlightAware Transoceanic
Sat 10:29:00 PM 51.0790 -22.4461 272° West 462 532 34,000  Level FlightAware Transoceanic
Sat 10:30:00 PM 51.0832 -22.6502 272° West 462 532 34,000  Level FlightAware Transoceanic
Sat 10:31:00 PM 51.0872 -22.8545 272° West 462 532 34,000  Level FlightAware Transoceanic
Sat 10:32:00 PM 51.0907 -23.0587 272° West 462 532 34,000  Level FlightAware Transoceanic
Sat 10:33:00 PM 51.0939 -23.2630 271° West 462 532 34,000  Level FlightAware Transoceanic
Sat 10:34:00 PM 51.0968 -23.4673 271° West 462 532 34,000  Level FlightAware Transoceanic
Sat 10:35:00 PM 51.0993 -23.6716 271° West 462 532 34,000  Level FlightAware Transoceanic
Sat 10:36:00 PM 51.1014 -23.8759 271° West 462 532 34,000  Level FlightAware Transoceanic
Sat 10:37:00 PM 51.1032 -24.0803 271° West 462 532 34,000  Level FlightAware Transoceanic
Sat 10:38:00 PM 51.1046 -24.2846 271° West 462 532 34,000  Level FlightAware Transoceanic
Sat 10:39:00 PM 51.1057 -24.4890 270° West 462 532 34,000  Level FlightAware Transoceanic
Sat 10:40:00 PM 51.1064 -24.6934 270° West 462 532 34,000  Level FlightAware Transoceanic
Sat 10:41:00 PM 51.1068 -24.8978 270° West 462 532 34,000  Level FlightAware Transoceanic
Sat 10:42:00 PM 51.1068 -25.1022 270° West 462 532 34,000  Level FlightAware Transoceanic
Sat 10:43:00 PM 51.1064 -25.3066 270° West 462 532 34,000  Level FlightAware Transoceanic
Sat 10:44:00 PM 51.1057 -25.5110 270° West 462 532 34,000  Level FlightAware Transoceanic
Sat 10:45:00 PM 51.1046 -25.7154 269° West 462 532 34,000  Level FlightAware Transoceanic
Sat 10:46:00 PM 51.1032 -25.9197 269° West 462 532 34,000  Level FlightAware Transoceanic
Sat 10:47:00 PM 51.1014 -26.1241 269° West 462 532 34,000  Level FlightAware Transoceanic
Sat 10:48:00 PM 51.0993 -26.3284 269° West 462 532 34,000  Level FlightAware Transoceanic
Sat 10:49:00 PM 51.0968 -26.5327 269° West 462 532 34,000  Level FlightAware Transoceanic
Sat 10:50:00 PM 51.0939 -26.7370 269° West 462 532 34,000  Level FlightAware Transoceanic
Sat 10:51:00 PM 51.0907 -26.9413 268° West 462 532 34,000  Level FlightAware Transoceanic
Sat 10:52:00 PM 51.0872 -27.1455 268° West 462 532 34,000  Level FlightAware Transoceanic
Sat 10:53:00 PM 51.0832 -27.3498 268° West 462 532 34,000  Level FlightAware Transoceanic
Sat 10:54:00 PM 51.0790 -27.5539 268° West 462 532 34,000  Level FlightAware Transoceanic
Sat 10:55:00 PM 51.0743 -27.7581 268° West 462 532 34,000  Level FlightAware Transoceanic
Sat 10:56:00 PM 51.0694 -27.9621 268° West 462 532 34,000  Level FlightAware Transoceanic
Sat 10:57:00 PM 51.0640 -28.1662 268° West 462 532 34,000  Level FlightAware Transoceanic
Sat 10:58:00 PM 51.0583 -28.3702 267° West 462 532 34,000  Level FlightAware Transoceanic
Sat 10:59:00 PM 51.0523 -28.5741 267° West 462 532 34,000  Level FlightAware Transoceanic
Sat 11:00:00 PM 51.0459 -28.7780 267° West 462 532 34,000  Level FlightAware Transoceanic
Sat 11:01:00 PM 51.0391 -28.9818 267° West 462 532 34,000  Level FlightAware Transoceanic
Sat 11:02:00 PM 51.0320 -29.1856 267° West 462 532 34,000  Level FlightAware Transoceanic
Sat 11:03:00 PM 51.0245 -29.3893 267° West 462 532 34,000  Level FlightAware Transoceanic
Sat 11:04:00 PM 51.0167 -29.5929 266° West 462 532 34,000  Level FlightAware Transoceanic
Sat 11:05:00 PM 51.0085 -29.7965 266° West 462 532 34,000  Level FlightAware Transoceanic
Sat 11:06:00 PM 51.0004 -29.9897 266° West  Level FlightAware Approximate
Sat 11:07:00 PM 50.9920 -30.1829 266° West  Level FlightAware Approximate
Sat 11:08:00 PM 50.9903 -30.1724 265° West  Level FlightAware Approximate
Sat 11:09:00 PM 50.9791 -30.3652 265° West  Level FlightAware Approximate
Sat 11:10:00 PM 50.9676 -30.5578 265° West  Level FlightAware Approximate
Sat 11:11:00 PM 50.9558 -30.7504 265° West  Level FlightAware Approximate
Sat 11:12:00 PM 50.9437 -30.9429 264° West  Level FlightAware Approximate
Sat 11:13:00 PM 50.9313 -31.1353 264° West  Level FlightAware Approximate
Sat 11:14:00 PM 50.9185 -31.3275 264° West  Level FlightAware Approximate
Sat 11:15:00 PM 50.9054 -31.5197 264° West  Level FlightAware Approximate
Sat 11:16:00 PM 50.8921 -31.7118 264° West  Level FlightAware Approximate
Sat 11:17:00 PM 50.8784 -31.9037 264° West  Level FlightAware Approximate
Sat 11:18:00 PM 50.8644 -32.0955 263° West  Level FlightAware Approximate
Sat 11:19:00 PM 50.8500 -32.2873 263° West  Level FlightAware Approximate
Sat 11:20:00 PM 50.8354 -32.4789 263° West  Level FlightAware Approximate
Sat 11:21:00 PM 50.8204 -32.6703 263° West  Level FlightAware Approximate
Sat 11:22:00 PM 50.8052 -32.8617 263° West  Level FlightAware Approximate
Sat 11:23:00 PM 50.7896 -33.0529 263° West  Level FlightAware Approximate
Sat 11:24:00 PM 50.7737 -33.2440 263° West  Level FlightAware Approximate
Sat 11:25:00 PM 50.7575 -33.4350 262° West  Level FlightAware Approximate
Sat 11:26:00 PM 50.7410 -33.6258 262° West  Level FlightAware Approximate
Sat 11:27:00 PM 50.7242 -33.8165 262° West  Level FlightAware Approximate
Sat 11:28:00 PM 50.7070 -34.0070 262° West  Level FlightAware Approximate
Sat 11:29:00 PM 50.6896 -34.1975 262° West  Level FlightAware Approximate
Sat 11:30:00 PM 50.6718 -34.3877 262° West  Level FlightAware Approximate
Sat 11:31:00 PM 50.6537 -34.5779 262° West  Level FlightAware Approximate
Sat 11:32:00 PM 50.6354 -34.7679 261° West  Level FlightAware Approximate
Sat 11:33:00 PM 50.6167 -34.9577 261° West  Level FlightAware Approximate
Sat 11:34:00 PM 50.5977 -35.1474 261° West  Level FlightAware Approximate
Sat 11:35:00 PM 50.5784 -35.3369 261° West  Level FlightAware Approximate
Sat 11:36:00 PM 50.5588 -35.5263 261° West  Level FlightAware Approximate
Sat 11:37:00 PM 50.5388 -35.7155 261° West  Level FlightAware Approximate
Sat 11:38:00 PM 50.5186 -35.9045 261° West  Level FlightAware Approximate
Sat 11:39:00 PM 50.4981 -36.0934 260° West  Level FlightAware Approximate
Sat 11:40:00 PM 50.4773 -36.2821 260° West  Level FlightAware Approximate
Sat 11:41:00 PM 50.4561 -36.4707 260° West  Level FlightAware Approximate
Sat 11:42:00 PM 50.4347 -36.6591 260° West  Level FlightAware Approximate
Sat 11:43:00 PM 50.4129 -36.8473 260° West  Level FlightAware Approximate
Sat 11:44:00 PM 50.3909 -37.0353 260° West  Level FlightAware Approximate
Sat 11:45:00 PM 50.3685 -37.2232 260° West  Level FlightAware Approximate
Sat 11:46:00 PM 50.3459 -37.4109 259° West  Level FlightAware Approximate
Sat 11:47:00 PM 50.3229 -37.5984 259° West  Level FlightAware Approximate
Sat 11:48:00 PM 50.2997 -37.7857 259° West  Level FlightAware Approximate
Sat 11:49:00 PM 50.2761 -37.9728 259° West  Level FlightAware Approximate
Sat 11:50:00 PM 50.2523 -38.1598 259° West  Level FlightAware Approximate
Sat 11:51:00 PM 50.2281 -38.3465 259° West  Level FlightAware Approximate
Sat 11:52:00 PM 50.2036 -38.5331 258° West  Level FlightAware Approximate
Sat 11:53:00 PM 50.1789 -38.7195 258° West  Level FlightAware Approximate
Sat 11:54:00 PM 50.1538 -38.9057 258° West  Level FlightAware Approximate
Sat 11:55:00 PM 50.1285 -39.0917 258° West  Level FlightAware Approximate
Sat 11:56:00 PM 50.1028 -39.2775 258° West  Level FlightAware Approximate
Sat 11:57:00 PM 50.0769 -39.4631 258° West  Level FlightAware Approximate
Sat 11:58:00 PM 50.0507 -39.6484 258° West  Level FlightAware Approximate
Sat 11:59:00 PM 50.0241 -39.8336 257° West  Level FlightAware Approximate
Sun 12:00:00 AM 49.9990 -40.0190 265° West  Level FlightAware Approximate
Sun 12:01:00 AM 49.9883 -40.2079 265° West  Level FlightAware Approximate
Sun 12:02:00 AM 49.9773 -40.3966 265° West  Level FlightAware Approximate
Sun 12:03:00 AM 49.9661 -40.5853 265° West  Level FlightAware Approximate
Sun 12:04:00 AM 49.9545 -40.7739 265° West  Level FlightAware Approximate
Sun 12:05:00 AM 49.9426 -40.9623 264° West  Level FlightAware Approximate
Sun 12:06:00 AM 49.9305 -41.1507 264° West  Level FlightAware Approximate
Sun 12:07:00 AM 49.9180 -41.3390 264° West  Level FlightAware Approximate
Sun 12:08:00 AM 49.9052 -41.5272 264° West  Level FlightAware Approximate
Sun 12:09:00 AM 49.8921 -41.7153 264° West  Level FlightAware Approximate
Sun 12:10:00 AM 49.8787 -41.9033 264° West  Level FlightAware Approximate
Sun 12:11:00 AM 49.8650 -42.0912 264° West  Level FlightAware Approximate
Sun 12:12:00 AM 49.8510 -42.2790 263° West  Level FlightAware Approximate
Sun 12:13:00 AM 49.8367 -42.4667 263° West  Level FlightAware Approximate
Sun 12:14:00 AM 49.8221 -42.6542 263° West  Level FlightAware Approximate
Sun 12:15:00 AM 49.8072 -42.8417 263° West  Level FlightAware Approximate
Sun 12:16:00 AM 49.7920 -43.0290 263° West  Level FlightAware Approximate
Sun 12:17:00 AM 49.7765 -43.2162 263° West  Level FlightAware Approximate
Sun 12:18:00 AM 49.7607 -43.4033 263° West  Level FlightAware Approximate
Sun 12:19:00 AM 49.7445 -43.5903 262° West  Level FlightAware Approximate
Sun 12:20:00 AM 49.7281 -43.7771 262° West  Level FlightAware Approximate
Sun 12:21:00 AM 49.7114 -43.9638 262° West  Level FlightAware Approximate
Sun 12:22:00 AM 49.6945 -44.1491 262° West  Level FlightAware Approximate
Sun 12:23:00 AM 49.6773 -44.3342 262° West  Level FlightAware Approximate
Sun 12:24:00 AM 49.6598 -44.5192 262° West  Level FlightAware Approximate
Sun 12:25:00 AM 49.6421 -44.7040 262° West  Level FlightAware Approximate
Sun 12:26:00 AM 49.6240 -44.8887 261° West  Level FlightAware Approximate
Sun 12:27:00 AM 49.6056 -45.0733 261° West  Level FlightAware Approximate
Sun 12:28:00 AM 49.5870 -45.2577 261° West  Level FlightAware Approximate
Sun 12:29:00 AM 49.5680 -45.4420 261° West  Level FlightAware Approximate
Sun 12:30:00 AM 49.5488 -45.6262 261° West  Level FlightAware Approximate
Sun 12:31:00 AM 49.5292 -45.8102 261° West  Level FlightAware Approximate
Sun 12:32:00 AM 49.5094 -45.9940 261° West  Level FlightAware Approximate
Sun 12:33:00 AM 49.4893 -46.1777 260° West  Level FlightAware Approximate
Sun 12:34:00 AM 49.4689 -46.3613 260° West  Level FlightAware Approximate
Sun 12:35:00 AM 49.4482 -46.5447 260° West  Level FlightAware Approximate
Sun 12:36:00 AM 49.4272 -46.7279 260° West  Level FlightAware Approximate
Sun 12:37:00 AM 49.4059 -46.9110 260° West  Level FlightAware Approximate
Sun 12:38:00 AM 49.3843 -47.0939 260° West  Level FlightAware Approximate
Sun 12:39:00 AM 49.3625 -47.2767 260° West  Level FlightAware Approximate
Sun 12:40:00 AM 49.3403 -47.4593 260° West  Level FlightAware Approximate
Sun 12:41:00 AM 49.3179 -47.6417 259° West  Level FlightAware Approximate
Sun 12:42:00 AM 49.2952 -47.8240 259° West  Level FlightAware Approximate
Sun 12:43:00 AM 49.2722 -48.0061 259° West  Level FlightAware Approximate
Sun 12:44:00 AM 49.2489 -48.1880 259° West  Level FlightAware Approximate
Sun 12:45:00 AM 49.2253 -48.3698 259° West  Level FlightAware Approximate
Sun 12:46:00 AM 49.2015 -48.5513 259° West  Level FlightAware Approximate
Sun 12:47:00 AM 49.1773 -48.7328 259° West  Level FlightAware Approximate
Sun 12:48:00 AM 49.1529 -48.9140 258° West  Level FlightAware Approximate
Sun 12:49:00 AM 49.1282 -49.0950 258° West  Level FlightAware Approximate
Sun 12:50:00 AM 49.1032 -49.2759 258° West  Level FlightAware Approximate
Sun 12:51:00 AM 49.0779 -49.4566 258° West  Level FlightAware Approximate
Sun 12:52:00 AM 49.0523 -49.6371 258° West  Level FlightAware Approximate
Sun 12:53:00 AM 49.0265 -49.8174 258° West  Level FlightAware Approximate
Sun 12:53:53 AM 48.9167 -50.2167 249° West 410 472 34,000  Level Gander Center
Sun 12:54:00 AM 49.0004 -49.9975 258° West  Level FlightAware Approximate
Sun 12:54:53 AM 48.8833 -50.4000 255° West 410 472 34,400  Level Gander Center
Sun 12:55:00 AM 48.9590 -50.1707 250° West  Level FlightAware Approximate
Sun 12:55:53 AM 48.8333 -50.5333 240° Southwest 410 472 35,900  Level Gander Center
Sun 12:56:00 AM 48.9173 -50.3436 250° West  Level FlightAware Approximate
Sun 12:56:34 AM 48.8167 -50.6667 259° West 410 472 36,000  Level Moncton Center
Sun 12:57:00 AM 48.8755 -50.5149 250° West  Level FlightAware Approximate
Sun 12:58:00 AM 48.8335 -50.6859 250° West  Level FlightAware Approximate
Sun 12:58:30 AM 48.7333 -50.9667 247° West 410 472 36,000  Level Gander Center
Sun 12:59:00 AM 48.7913 -50.8565 249° West  Level FlightAware Approximate
Sun 12:59:30 AM 48.7000 -51.1333 253° West 410 472 36,000  Level Gander Center
Sun 01:00:30 AM 48.6500 -51.3000 246° West 410 472 36,000  Level Gander Center
Sun 01:01:30 AM 48.6000 -51.4500 243° Southwest 410 472 36,000  Level Gander Center
Sun 01:02:30 AM 48.5667 -51.6167 253° West 410 472 36,000  Level Gander Center
Sun 01:03:30 AM 48.5333 -51.7833 253° West 410 472 36,000  Level Gander Center
Sun 01:04:30 AM 48.5000 -51.9333 252° West 410 472 36,000  Level Gander Center
Sun 01:09:21 AM 48.6231 -51.5240 249° West 413 475 36,000  Level FlightAware ADS-B (CYYT)
Sun 01:09:53 AM 48.3667 -52.8500 249° West 410 472 36,000  Level Gander Center
Sun 01:10:30 AM 48.3500 -52.9500 256° West 410 472 36,000  Level Gander Center
Sun 01:11:30 AM 48.3333 -53.1333 262° West 410 472 36,000  Level Gander Center
Sun 01:12:30 AM 48.3167 -53.2833 261° West 410 472 36,000  Level Gander Center
Sun 01:13:30 AM 48.3000 -53.4667 262° West 410 472 36,000  Level Gander Center
Sun 01:14:30 AM 48.2667 -53.6167 252° West 400 460 36,000  Level Gander Center
Sun 01:15:30 AM 48.2500 -53.8000 262° West 400 460 36,000  Level Gander Center
Sun 01:16:30 AM 48.2333 -53.9500 261° West 400 460 36,000  Level Gander Center
Sun 01:17:30 AM 48.2000 -54.1000 252° West 400 460 36,000  Level Gander Center
Sun 01:18:30 AM 48.1833 -54.2833 262° West 400 460 36,000  Level Gander Center
Sun 01:19:30 AM 48.1500 -54.4333 252° West 410 472 36,000  Level Gander Center
Sun 01:20:30 AM 48.1333 -54.6167 262° West 410 472 36,000  Level Gander Center
Sun 01:21:30 AM 48.1167 -54.7667 261° West 400 460 36,000  Level Gander Center
Sun 01:22:30 AM 48.0667 -54.9500 248° West 410 472 36,000  Level Gander Center
Sun 01:23:30 AM 48.0500 -55.1000 261° West 410 472 36,000  Level Gander Center
Sun 01:24:30 AM 48.0333 -55.2500 261° West 410 472 36,000 387 Level Gander Center
Sun 01:25:34 AM 48.0000 -55.4500 256° West 400 460 36,800 919 Climbing Moncton Center
Sun 01:26:34 AM 47.9833 -55.6000 261° West 400 460 37,900 600 Climbing Moncton Center
Sun 01:27:34 AM 47.9500 -55.7667 253° West 400 460 38,000 50 Climbing Moncton Center
Sun 01:28:34 AM 47.9167 -55.9167 252° West 400 460 38,000  Level Moncton Center
Sun 01:29:34 AM 47.9000 -56.1000 262° West 380 437 38,000  Level Moncton Center
Sun 01:30:34 AM 47.8833 -56.2500 261° West 400 460 38,000  Level Moncton Center
Sun 01:31:34 AM 47.8333 -56.4000 244° Southwest 400 460 38,000  Level Moncton Center
Sun 01:32:34 AM 47.8167 -56.5667 262° West 400 460 38,000  Level Moncton Center
Sun 01:33:34 AM 47.8000 -56.7167 261° West 400 460 38,000  Level Moncton Center
Sun 01:34:34 AM 47.7667 -56.9000 255° West 400 460 38,000  Level Moncton Center
Sun 01:35:34 AM 47.7333 -57.0500 252° West 400 460 38,000  Level Moncton Center
Sun 01:36:34 AM 47.7000 -57.2000 252° West 400 460 38,000  Level Moncton Center
Sun 01:37:34 AM 47.6833 -57.3833 262° West 400 460 38,000  Level Moncton Center
Sun 01:38:34 AM 47.6667 -57.5333 261° West 400 460 38,000  Level Moncton Center
Sun 01:39:34 AM 47.6167 -57.6833 244° Southwest 400 460 38,000  Level Moncton Center
Sun 01:40:34 AM 47.6000 -57.8667 262° West 400 460 38,000  Level Moncton Center
Sun 01:41:34 AM 47.5667 -58.0167 252° West 400 460 38,000  Level Moncton Center
Sun 01:42:34 AM 47.5500 -58.1667 261° West 400 460 38,000  Level Moncton Center
Sun 01:43:34 AM 47.5000 -58.3500 248° West 400 460 38,000  Level Moncton Center
Sun 01:44:34 AM 47.4833 -58.5000 261° West 400 460 38,000  Level Moncton Center
Sun 01:45:34 AM 47.4500 -58.6500 252° West 400 460 38,000  Level Moncton Center
Sun 01:46:34 AM 47.4333 -58.8000 261° West 400 460 38,000  Level Moncton Center
Sun 01:47:34 AM 47.3833 -58.9833 248° West 400 460 38,000  Level Moncton Center
Sun 01:48:34 AM 47.3667 -59.1333 261° West 400 460 38,000  Level Moncton Center
Sun 01:54:44 AM 47.1825 -60.1456 254° West 407 468 38,000  Level FlightAware ADS-B (CYQY)
Sun 01:56:10 AM 47.1364 -60.3726 254° West 411 473 38,000  Level FlightAware ADS-B (CYQY)
Sun 01:57:25 AM 47.0950 -60.5748 254° West 406 467 38,000  Level FlightAware ADS-B (CYQY)
Sun 01:57:58 AM 47.0769 -60.6614 253° West 404 465 38,000  Level FlightAware ADS-B (CYQY)
Sun 01:58:33 AM 47.0581 -60.7520 254° West 404 465 38,000  Level FlightAware ADS-B (CYQY)
Sun 01:59:06 AM 47.0401 -60.8385 253° West 404 465 38,000  Level FlightAware ADS-B (CYQY)
Sun 01:59:42 AM 47.0202 -60.9327 253° West 405 466 38,000  Level FlightAware ADS-B (CYQY)
Sun 02:00:00 AM 47.0111 -60.9762 254° West 405 466 38,000  Level FlightAware ADS-B (CYQY)
Sun 02:00:44 AM 46.9861 -61.0949 253° West 407 468 38,000  Level FlightAware ADS-B (CYQY)
Sun 02:01:10 AM 46.9719 -61.1617 253° West 409 471 38,000  Level FlightAware ADS-B (CYQY)
Sun 02:01:32 AM 46.9597 -61.2191 253° West 410 472 38,000  Level FlightAware ADS-B (CYQY)
Sun 02:02:06 AM 46.9401 -61.3106 253° West 413 475 38,000  Level FlightAware ADS-B (CYQY)
Sun 02:02:33 AM 46.9245 -61.3840 253° West 414 476 38,000  Level FlightAware ADS-B (CYQY)
Sun 02:03:25 AM 46.8950 -61.5208 253° West 415 478 38,000  Level FlightAware ADS-B (CYQY)
Sun 02:04:07 AM 46.8702 -61.6345 253° West 414 476 38,000  Level FlightAware ADS-B (CYQY)
Sun 02:04:29 AM 46.8577 -61.6918 253° West 414 476 38,000  Level FlightAware ADS-B (CYQY)
Sun 02:05:17 AM 46.8316 -61.8114 253° West 414 476 38,000  Level FlightAware ADS-B (CYQY)
Sun 02:05:36 AM 46.8188 -61.8698 253° West 413 475 38,000  Level FlightAware ADS-B (CYQY)
Sun 02:06:18 AM 46.7955 -61.9749 252° West 413 475 38,000  Level FlightAware ADS-B (CYQY)
Sun 02:07:04 AM 46.7791 -62.0490 253° West 413 475 38,000  Level FlightAware ADS-B (CYQY)
Sun 02:07:35 AM 46.7488 -62.1852 253° West 414 476 38,000  Level FlightAware ADS-B (CYQY)
Sun 02:07:49 AM 46.7439 -62.2074 252° West 414 476 38,000  Level FlightAware ADS-B (CYQY)
Sun 02:12:20 AM 46.6386 -62.6733 252° West 416 479 38,000  Level FlightAware ADS-B (CYQY)
Sun 02:12:53 AM 46.5500 -63.0000 252° West 420 483 38,000  Level Gander Center
Sun 02:13:34 AM 46.5167 -63.1000 244° Southwest 410 472 38,000  Level Moncton Center
Sun 02:19:50 AM 46.2940 -64.1310 251° West 422 486 38,000  Level FlightAware ADS-B
Sun 02:21:56 AM 46.2137 -64.4576 250° West 426 490 38,000  Level FlightAware ADS-B
Sun 02:22:37 AM 46.1860 -64.5689 250° West 427 491 38,000  Level FlightAware ADS-B
Sun 02:23:26 AM 46.1515 -64.7069 250° West 431 496 38,000  Level FlightAware ADS-B
Sun 02:23:57 AM 46.1320 -64.7848 250° West 432 497 38,000  Level FlightAware ADS-B
Sun 02:24:47 AM 46.0961 -64.9271 250° West 434 499 38,000  Level FlightAware ADS-B
Sun 02:25:27 AM 46.0700 -65.0297 250° West 433 498 38,000  Level FlightAware ADS-B
Sun 02:25:57 AM 46.0483 -65.1149 250° West 433 498 38,000  Level FlightAware ADS-B
Sun 02:26:36 AM 46.0217 -65.2189 250° West 431 496 38,000  Level FlightAware ADS-B
Sun 02:27:06 AM 46.0008 -65.3004 250° West 431 496 38,000  Level FlightAware ADS-B
Sun 02:27:36 AM 45.9812 -65.3766 250° West 431 496 38,000  Level FlightAware ADS-B
Sun 02:28:06 AM 45.9595 -65.4604 250° West 431 496 38,000  Level FlightAware ADS-B
Sun 02:28:41 AM 45.9353 -65.5537 250° West 432 497 38,000  Level FlightAware ADS-B
Sun 02:29:12 AM 45.9137 -65.6370 250° West 431 496 38,000  Level FlightAware ADS-B
Sun 02:29:47 AM 45.8928 -65.7167 250° West 430 495 38,000  Level FlightAware ADS-B
Sun 02:30:18 AM 45.8674 -65.8137 249° West 431 496 38,000  Level FlightAware ADS-B
Sun 02:31:00 AM 45.8446 -65.8999 249° West 431 496 38,000  Level FlightAware ADS-B
Sun 02:31:39 AM 45.8102 -66.0300 249° West 430 495 38,000  Level FlightAware ADS-B
Sun 02:32:10 AM 45.7899 -66.1065 249° West 430 495 38,000  Level FlightAware ADS-B
Sun 02:32:50 AM 45.7606 -66.2164 249° West 430 495 38,000  Level FlightAware ADS-B
Sun 02:33:20 AM 45.7396 -66.2951 249° West 431 496 38,000  Level FlightAware ADS-B
Sun 02:34:00 AM 45.7120 -66.3973 249° West 431 496 38,000  Level FlightAware ADS-B
Sun 02:34:32 AM 45.6875 -66.4883 249° West 431 496 38,000  Level FlightAware ADS-B
Sun 02:35:03 AM 45.6687 -66.5576 249° West 430 495 38,000  Level FlightAware ADS-B
Sun 02:35:45 AM 45.6367 -66.6754 249° West 431 496 38,000  Level FlightAware ADS-B
Sun 02:36:37 AM 45.5980 -66.8164 249° West 431 496 38,000  Level FlightAware ADS-B
Sun 02:41:44 AM 45.3720 -67.6267 248° West 432 497 38,000  Level FlightAware ADS-B
Sun 02:42:35 AM 45.3339 -67.7608 248° West 433 498 38,000  Level FlightAware ADS-B
Sun 02:43:06 AM 45.3138 -67.8224 244° Southwest 433 498 38,000  Level FlightAware ADS-B
Sun 02:44:07 AM 45.2596 -67.9830 245° Southwest 433 498 38,000  Level FlightAware ADS-B
Sun 02:44:38 AM 45.2287 -68.0769 245° Southwest 433 498 38,000  Level FlightAware ADS-B
Sun 02:45:10 AM 45.2021 -68.1574 245° Southwest 434 499 38,000  Level FlightAware ADS-B
Sun 02:45:42 AM 45.1747 -68.2402 245° Southwest 433 498 38,000  Level FlightAware ADS-B (KBGR)
Sun 02:46:13 AM 45.1483 -68.3202 245° Southwest 433 498 38,000  Level FlightAware ADS-B (KBGR)
Sun 02:46:49 AM 45.1194 -68.4065 245° Southwest 433 498 38,000  Level FlightAware ADS-B
Sun 02:47:20 AM 45.0912 -68.4903 245° Southwest 432 497 38,000  Level FlightAware ADS-B
Sun 02:47:54 AM 45.0629 -68.5750 245° Southwest 430 495 38,000  Level FlightAware ADS-B
Sun 02:48:24 AM 45.0369 -68.6518 244° Southwest 429 494 38,000  Level FlightAware ADS-B
Sun 02:48:55 AM 45.0104 -68.7298 245° Southwest 429 494 38,000  Level FlightAware ADS-B
Sun 02:49:25 AM 44.9840 -68.8078 244° Southwest 428 493 38,000  Level FlightAware ADS-B
Sun 02:49:56 AM 44.9601 -68.8779 244° Southwest 428 493 38,000  Level FlightAware ADS-B (KBGR)
Sun 02:50:27 AM 44.9315 -68.9617 244° Southwest 428 493 38,000  Level FlightAware ADS-B (KBGR)
Sun 02:50:59 AM 44.9046 -69.0404 244° Southwest 428 493 38,000  Level FlightAware ADS-B
Sun 02:51:36 AM 44.8722 -69.1348 244° Southwest 424 488 38,000  Level FlightAware ADS-B
Sun 02:52:06 AM 44.8518 -69.1937 244° Southwest 423 487 38,000  Level FlightAware ADS-B
Sun 02:52:39 AM 44.8185 -69.2901 244° Southwest 426 490 38,000  Level FlightAware ADS-B
Sun 02:53:09 AM 44.7938 -69.3615 244° Southwest 426 490 38,000  Level FlightAware ADS-B
Sun 02:53:42 AM 44.7649 -69.4445 244° Southwest 423 487 38,000  Level FlightAware ADS-B
Sun 02:54:22 AM 44.7300 -69.5445 244° Southwest 421 484 38,000  Level FlightAware ADS-B (EPKK / KRK)
Sun 02:54:58 AM 44.6994 -69.6319 244° Southwest 421 484 38,000  Level FlightAware ADS-B (KBGR)
Sun 02:55:38 AM 44.6643 -69.7324 244° Southwest 423 487 38,000  Level FlightAware ADS-B
Sun 02:56:13 AM 44.6354 -69.8142 244° Southwest 424 488 38,000  Level FlightAware ADS-B (KBGR)
Sun 02:56:44 AM 44.6072 -69.8934 244° Southwest 427 491 38,000  Level FlightAware ADS-B
Sun 02:57:23 AM 44.5728 -69.9910 244° Southwest 426 490 38,000  Level FlightAware ADS-B
Sun 02:57:36 AM 44.5614 -70.0231 245° Southwest 422 486 38,000  Level FlightAware ADS-B (KASH)
Sun 02:58:14 AM 44.5281 -70.1164 244° Southwest 426 490 38,000  Level FlightAware ADS-B
Sun 02:58:47 AM 44.4999 -70.1950 243° Southwest 425 489 38,000  Level FlightAware ADS-B
Sun 02:58:55 AM 44.5151 -70.1528 244° Southwest 425 489 38,000  Level FlightAware ADS-B (EPKK / KRK)
Sun 02:59:28 AM 44.4642 -70.2946 243° Southwest 425 489 38,000  Level FlightAware ADS-B
Sun 02:59:59 AM 44.4490 -70.3370 243° Southwest 424 488 38,000  Level FlightAware ADS-B
Sun 03:00:28 AM 44.4101 -70.4448 244° Southwest 420 483 38,000  Level FlightAware ADS-B (KASH)
Sun 03:00:33 AM 44.4058 -70.4568 244° Southwest 420 483 38,000  Level FlightAware ADS-B (KASH)
Sun 03:01:07 AM 44.3795 -70.5294 243° Southwest 424 488 38,000  Level FlightAware ADS-B
Sun 03:01:37 AM 44.3727 -70.5484 243° Southwest 424 488 38,000  Level FlightAware ADS-B
Sun 03:02:09 AM 44.3210 -70.6903 243° Southwest 424 488 38,000  Level FlightAware ADS-B (EPKK / KRK)
Sun 03:02:43 AM 44.2909 -70.7727 243° Southwest 426 490 38,000  Level FlightAware ADS-B (KBGR)
Sun 03:03:21 AM 44.2599 -70.8575 243° Southwest 425 489 38,000  Level FlightAware ADS-B (EPKK / KRK)
Sun 03:03:51 AM 44.2530 -70.8763 243° Southwest 426 490 38,000  Level FlightAware ADS-B (EPKK / KRK)
Sun 03:04:26 AM 44.1987 -71.0239 243° Southwest 424 488 38,000  Level FlightAware ADS-B
Sun 03:05:04 AM 44.1714 -71.0978 243° Southwest 423 487 38,000  Level FlightAware ADS-B
Sun 03:05:36 AM 44.1373 -71.1899 243° Southwest 423 487 38,000  Level FlightAware ADS-B
Sun 03:06:28 AM 44.0932 -71.3085 243° Southwest 424 488 38,000  Level FlightAware ADS-B (EPKK / KRK)
Sun 03:07:02 AM 44.0592 -71.3994 243° Southwest 425 489 38,000  Level FlightAware ADS-B (EPKK / KRK)
Sun 03:07:07 AM 44.0540 -71.4120 243° Southwest 426 490 38,000  Level FlightAware ADS-B
Sun 03:07:37 AM 44.0280 -71.4840 243° Southwest 427 491 38,000  Level FlightAware ADS-B
Sun 03:07:42 AM 44.0233 -71.4952 243° Southwest 426 490 38,000  Level FlightAware ADS-B
Sun 03:08:13 AM 43.9948 -71.5711 242° Southwest 425 489 38,000  Level FlightAware ADS-B (EPKK / KRK)
Sun 03:08:45 AM 43.9654 -71.6490 242° Southwest 423 487 38,000  Level FlightAware ADS-B (KASH)
Sun 03:08:47 AM 43.9640 -71.6540 North 421 484 38,000  Level FlightAware ADS-B
Sun 03:09:24 AM 43.9310 -71.7403 242° Southwest 421 484 38,000  Level FlightAware ADS-B (EPKK / KRK)
Sun 03:09:55 AM 43.9020 -71.8165 242° Southwest 422 486 38,000  Level FlightAware ADS-B (EPKK / KRK)
Sun 03:10:08 AM 43.8900 -71.8480 243° Southwest 425 489 38,000  Level FlightAware ADS-B
Sun 03:10:25 AM 43.8752 -71.8871 242° Southwest 427 491 38,000  Level FlightAware ADS-B (EPKK / KRK)
Sun 03:10:56 AM 43.8472 -71.9605 242° Southwest 429 494 38,000  Level FlightAware ADS-B (EPKK / KRK)
Sun 03:11:26 AM 43.8181 -72.0365 242° Southwest 429 494 38,000  Level FlightAware ADS-B (EPKK / KRK)
Sun 03:11:57 AM 43.7905 -72.1087 242° Southwest 430 495 38,000  Level FlightAware ADS-B (EPKK / KRK)
Sun 03:12:31 AM 43.7580 -72.1933 243° Southwest 426 490 38,000  Level FlightAware ADS-B (KASH)
Sun 03:12:42 AM 43.7646 -72.1760 242° Southwest 429 494 38,000  Level FlightAware ADS-B (EPKK / KRK)
Sun 03:13:12 AM 43.7206 -72.2904 242° Southwest 428 493 38,000  Level FlightAware ADS-B (EPKK / KRK)
Sun 03:13:46 AM 43.6883 -72.3738 243° Southwest 420 483 38,000  Level FlightAware ADS-B (KASH)
Sun 03:14:28 AM 43.6493 -72.4744 243° Southwest 417 480 38,000  Level FlightAware ADS-B (KASH)
Sun 03:15:15 AM 43.6067 -72.5839 242° Southwest 419 482 38,000  Level FlightAware ADS-B (KASH)
Sun 03:17:36 AM 43.4769 -72.9145 243° Southwest 414 476 38,000  Level FlightAware ADS-B (KASH)
Sun 03:17:57 AM 43.4580 -72.9620 242° Southwest 418 481 38,000  Level FlightAware ADS-B
Sun 03:18:11 AM 43.4448 -72.9953 243° Southwest 414 476 38,000  Level FlightAware ADS-B (KASH)
Sun 03:18:49 AM 43.4105 -73.0822 243° Southwest 414 476 38,000  Level FlightAware ADS-B (KASH)
Sun 03:19:15 AM 43.3880 -73.1390 242° Southwest 411 473 38,000  Level FlightAware ADS-B
Sun 03:19:40 AM 43.3640 -73.2000 242° Southwest 407 468 38,000  Level FlightAware ADS-B
Sun 03:20:51 AM 43.3024 -73.3530 241° Southwest 404 465 38,000 -932 Level FlightAware ADS-B
Sun 03:22:21 AM 43.2199 -73.5581 241° Southwest 395 455 35,500 -1,706 Descending FlightAware ADS-B
Sun 03:22:40 AM 43.1992 -73.5946 223° Southwest 403 464 34,900 -1,756 Descending FlightAware ADS-B
Sun 03:23:02 AM 43.1638 -73.6265 204° Southwest 413 475 34,300 -1,742 Descending FlightAware ADS-B
Sun 03:23:42 AM 43.0919 -73.6586 197° South 411 473 33,100 -1,800 Descending FlightAware ADS-B
Sun 03:24:12 AM 43.0376 -73.6811 197° South 404 465 32,200 -1,800 Descending FlightAware ADS-B
Sun 03:24:52 AM 42.9683 -73.7100 197° South 399 459 31,000 -1,794 Descending FlightAware ADS-B
Sun 03:25:49 AM 42.8704 -73.7513 197° South 390 449 29,300 -1,552 Descending FlightAware ADS-B
Sun 03:27:15 AM 42.7369 -73.8092 197° South 388 447 27,300 -1,479 Descending Boston Center
Sun 03:28:15 AM 42.6397 -73.8511 198° South 372 428 25,700 -1,550 Descending Boston Center
Sun 03:29:15 AM 42.5442 -73.8961 199° South 370 426 24,200 -1,537 Descending Boston Center
Sun 03:30:16 AM 42.4506 -73.9367 198° South 362 417 22,600 -1,550 Descending Boston Center
Sun 03:31:15 AM 42.3586 -73.9778 198° South 355 409 21,100 -1,550 Descending Boston Center
Sun 03:32:16 AM 42.2681 -74.0183 198° South 350 403 19,500 -1,550 Descending Boston Center
Sun 03:33:15 AM 42.1719 -74.0597 198° South 331 381 18,000 -1,250 Descending Boston Center
Sun 03:34:16 AM 42.0872 -74.1000 199° South 320 368 17,000 -992 Descending Boston Center
Sun 03:35:16 AM 42.0103 -74.1322 197° South 292 336 16,000 -1,300 Descending Boston Center
Sun 03:36:16 AM 41.9397 -74.1631 198° South 272 313 14,400 -1,350 Descending Boston Center
Sun 03:37:16 AM 41.8681 -74.1939 198° South 271 312 13,300 -1,101 Descending Boston Center
Sun 03:42:54 AM 41.8003 -74.2227 198° South 233 268 7,100 -886 Descending FlightAware ADS-B (KSNC)
Sun 03:44:16 AM 41.4119 -74.3914 198° South 238 274 7,100  Level Boston Center
Sun 03:45:16 AM 41.3489 -74.4186 198° South 238 274 7,100  Level Boston Center
Sun 03:46:17 AM 41.2856 -74.4050 171° South 249 287 7,100 -50 Level Boston Center
Sun 03:47:17 AM 41.2297 -74.3600 149° Southeast 236 272 7,000 -250 Descending Boston Center
Sun 03:48:17 AM 41.1825 -74.3228 149° Southeast 204 235 6,600 -700 Descending Boston Center
Sun 03:49:17 AM 41.1339 -74.2853 150° Southeast 203 234 5,600 -885 Descending Boston Center
Sun 03:50:19 AM 41.0889 -74.2489 149° Southeast 193 222 4,800 -807 Descending Boston Center
Sun 03:51:16 AM 41.0500 -74.2167 148° Southeast 174 200 4,000 -872 Descending New York TRACON
Sun 03:52:16 AM 41.0167 -74.1833 143° Southeast 166 191 3,100 -450 Descending New York TRACON
Sun 03:53:16 AM 40.9667 -74.1500 153° Southeast 164 189 3,100  Level New York TRACON
Sun 03:54:16 AM 40.9333 -74.1333 159° South 164 189 3,100  Level New York TRACON
Sun 03:55:16 AM 40.9000 -74.1000 143° Southeast 162 186 3,100 -200 Level New York TRACON
Sun 03:56:16 AM 40.8500 -74.0667 153° Southeast 162 186 2,700 -250 Descending New York TRACON
Sun 03:57:16 AM 40.8167 -74.0833 201° Southwest 136 157 2,600 -400 Descending New York TRACON
Sun 03:58:16 AM 40.7833 -74.1000 201° Southwest 133 153 1,900 -700 Descending New York TRACON
Sun 03:59:16 AM 40.7500 -74.1333 217° Southwest 131 151 1,200 -700 Descending New York TRACON
Sun 04:00:16 AM 40.7167 -74.1500 201° Southwest 134 154 500 -700 Descending New York TRACON
Sun 04:02:00 AM 40.6925 -74.1687 208° Southwest  Level Estimated
Sun 04:09:00 AM 40.6925 -74.1687 208° Southwest  Level Estimated

Login

Don't have an account? Register now (free) for customized features, flight alerts, and more!